Observation data for Boys Ranch on 12/13/2019      Previous  Date       Current Mesonet Observations  Soil Data  Daily Summary Page  Observations in Plain Language
KBY1 130600Z 27003KT M01/M04 A30 RMK A01 T10081043  RH  077%=      5-min Rain = 0
KBY1 130601Z 27003KT M01/M04 A30 RMK A01 T10091043  RH  077%=      5-min Rain = 0
KBY1 130602Z 26004KT M01/M04 A30 RMK A01 T10101043  RH  078%=      5-min Rain = 0
KBY1 130603Z 27003KT M01/M04 A30 RMK A01 T10101043  RH  078%=      5-min Rain = 0
KBY1 130604Z 26003KT M01/M04 A30 RMK A01 T10101042  RH  078%=      5-min Rain = 0
KBY1 130605Z 28003KT M01/M04 A30 RMK A01 T10091042  RH  078%=      5-min Rain = 0
KBY1 130606Z 28003KT M01/M04 A30 RMK A01 T10091042  RH  078%=      5-min Rain = 0
KBY1 130607Z 27002KT M01/M04 A30 RMK A01 T10081041  RH  078%=      5-min Rain = 0
KBY1 130608Z 28002KT M01/M04 A30 RMK A01 T10081042  RH  078%=      5-min Rain = 0
KBY1 130609Z 28001KT M01/M04 A30 RMK A01 T10081042  RH  078%=      5-min Rain = 0
KBY1 130610Z 25002KT M01/M04 A30 RMK A01 T10091042  RH  078%=      5-min Rain = 0
KBY1 130611Z 27003KT M01/M04 A30 RMK A01 T10091042  RH  078%=      5-min Rain = 0
KBY1 130612Z 27003KT M01/M04 A30 RMK A01 T10091042  RH  078%=      5-min Rain = 0
KBY1 130613Z 30002KT M01/M04 A30 RMK A01 T10091042  RH  078%=      5-min Rain = 0
KBY1 130614Z 29003KT M01/M04 A30 RMK A01 T10091042  RH  078%=      5-min Rain = 0
KBY1 130615Z 28002KT M01/M04 A30 RMK A01 T10091042  RH  078%=      5-min Rain = 0
KBY1 130616Z 29002KT M01/M04 A30 RMK A01 T10091042  RH  078%=      5-min Rain = 0
KBY1 130617Z 29000KT M01/M04 A2999 RMK A01 T10091043  RH  078%=      5-min Rain = 0
KBY1 130618Z 29002KT M01/M04 A2999 RMK A01 T10091043  RH  078%=      5-min Rain = 0
KBY1 130619Z 30001KT M01/M04 A2999 RMK A01 T10101043  RH  078%=      5-min Rain = 0
KBY1 130620Z 29000KT M01/M04 A2999 RMK A01 T10101042  RH  078%=      5-min Rain = 0
KBY1 130621Z 03001KT M01/M04 A2999 RMK A01 T10101043  RH  079%=      5-min Rain = 0
KBY1 130622Z 32001KT M01/M04 A2999 RMK A01 T10111043  RH  079%=      5-min Rain = 0
KBY1 130623Z 02001KT M01/M04 A2999 RMK A01 T10121044  RH  079%=      5-min Rain = 0
KBY1 130624Z 00001KT M01/M04 A2999 RMK A01 T10131044  RH  079%=      5-min Rain = 0
KBY1 130625Z 36001KT M01/M05 A2999 RMK A01 T10141045  RH  079%=      5-min Rain = 0
KBY1 130626Z 34001KT M01/M04 A2999 RMK A01 T10141044  RH  080%=      5-min Rain = 0
KBY1 130627Z 33002KT M02/M05 A2999 RMK A01 T10151045  RH  080%=      5-min Rain = 0
KBY1 130628Z 32002KT M02/M04 A2999 RMK A01 T10151044  RH  081%=      5-min Rain = 0
KBY1 130629Z 30002KT M02/M04 A2999 RMK A01 T10161044  RH  081%=      5-min Rain = 0
KBY1 130630Z 29003KT M02/M04 A2999 RMK A01 T10161044  RH  081%=      5-min Rain = 0
KBY1 130631Z 28003KT M02/M04 A2999 RMK A01 T10161044  RH  081%=      5-min Rain = 0
KBY1 130632Z 28003KT M02/M04 A2999 RMK A01 T10161044  RH  081%=      5-min Rain = 0
KBY1 130633Z 27003KT M02/M04 A2999 RMK A01 T10161044  RH  081%=      5-min Rain = 0
KBY1 130634Z 28003KT M02/M04 A2999 RMK A01 T10161044  RH  081%=      5-min Rain = 0
KBY1 130635Z 28003KT M02/M04 A2999 RMK A01 T10161044  RH  081%=      5-min Rain = 0
KBY1 130636Z 29004KT M02/M04 A2999 RMK A01 T10151044  RH  081%=      5-min Rain = 0
KBY1 130637Z 29003KT M02/M04 A2999 RMK A01 T10151044  RH  081%=      5-min Rain = 0
KBY1 130638Z 30003KT M02/M04 A2999 RMK A01 T10151044  RH  081%=      5-min Rain = 0
KBY1 130639Z 30003KT M02/M04 A2999 RMK A01 T10151044  RH  081%=      5-min Rain = 0
KBY1 130640Z 30004KT M02/M04 A2999 RMK A01 T10151044  RH  081%=      5-min Rain = 0
KBY1 130641Z 30004KT M02/M04 A2999 RMK A01 T10151044  RH  081%=      5-min Rain = 0
KBY1 130642Z 29004KT M02/M04 A2999 RMK A01 T10151043  RH  081%=      5-min Rain = 0
KBY1 130643Z 29003KT M01/M04 A2999 RMK A01 T10141043  RH  081%=      5-min Rain = 0
KBY1 130644Z 29003KT M01/M04 A2999 RMK A01 T10141043  RH  081%=      5-min Rain = 0
KBY1 130645Z 29001KT M01/M04 A2999 RMK A01 T10141043  RH  080%=      5-min Rain = 0
KBY1 130646Z 29002KT M01/M04 A2999 RMK A01 T10131043  RH  080%=      5-min Rain = 0
KBY1 130647Z 27001KT M01/M04 A2999 RMK A01 T10131043  RH  080%=      5-min Rain = 0
KBY1 130648Z 30001KT M01/M04 A2999 RMK A01 T10131043  RH  080%=      5-min Rain = 0
KBY1 130649Z 28001KT M01/M04 A2999 RMK A01 T10141044  RH  080%=      5-min Rain = 0
KBY1 130650Z 27001KT M01/M04 A2999 RMK A01 T10141044  RH  080%=      5-min Rain = 0
KBY1 130651Z 26002KT M01/M04 A2999 RMK A01 T10141044  RH  080%=      5-min Rain = 0
KBY1 130652Z 26004KT M02/M04 A2999 RMK A01 T10151044  RH  080%=      5-min Rain = 0
KBY1 130653Z 26005KT M02/M04 A2999 RMK A01 T10151044  RH  081%=      5-min Rain = 0
KBY1 130654Z 26005KT M02/M04 A2999 RMK A01 T10151043  RH  081%=      5-min Rain = 0
KBY1 130655Z 26006KT M02/M04 A2999 RMK A01 T10151043  RH  081%=      5-min Rain = 0
KBY1 130656Z 26008KT M01/M04 A2998 RMK A01 T10141041  RH  081%=      5-min Rain = 0
KBY1 130657Z 27008KT M01/M04 A2998 RMK A01 T10111040  RH  081%=      5-min Rain = 0
KBY1 130658Z 27008KT M01/M04 A2998 RMK A01 T10091040  RH  080%=      5-min Rain = 0
KBY1 130659Z 26008KT M01/M04 A2998 RMK A01 T10081041  RH  078%=      5-min Rain = 0
KBY1 130700Z 27008KT M01/M04 A2998 RMK A01 T10081042  RH  078%=      5-min Rain = 0
KBY1 130701Z 27008KT M01/M04 A2998 RMK A01 T10081042  RH  078%=      5-min Rain = 0
KBY1 130702Z 27007KT M01/M04 A2998 RMK A01 T10081042  RH  077%=      5-min Rain = 0
KBY1 130703Z 27006KT M01/M04 A2998 RMK A01 T10081042  RH  077%=      5-min Rain = 0
KBY1 130704Z 29007KT M01/M04 A2998 RMK A01 T10091043  RH  078%=      5-min Rain = 0
KBY1 130705Z 29007KT M01/M04 A2998 RMK A01 T10091043  RH  078%=      5-min Rain = 0
KBY1 130706Z 29007KT M01/M04 A2998 RMK A01 T10091043  RH  078%=      5-min Rain = 0
KBY1 130707Z 29007KT M01/M04 A2998 RMK A01 T10091043  RH  078%=      5-min Rain = 0
KBY1 130708Z 28006G11KT M01/M04 A2998 RMK A01 T10091043  RH  078%=      5-min Rain = 0
KBY1 130709Z 27005KT M01/M04 A2998 RMK A01 T10091043  RH  078%=      5-min Rain = 0
KBY1 130710Z 28007KT M01/M04 A2998 RMK A01 T10101043  RH  078%=      5-min Rain = 0
KBY1 130711Z 28008KT M01/M04 A2998 RMK A01 T10101043  RH  078%=      5-min Rain = 0
KBY1 130712Z 27009KT M01/M04 A2998 RMK A01 T10091043  RH  078%=      5-min Rain = 0
KBY1 130713Z 28007KT M01/M04 A2998 RMK A01 T10081043  RH  077%=      5-min Rain = 0
KBY1 130714Z 28006KT M01/M04 A2998 RMK A01 T10081044  RH  077%=      5-min Rain = 0
KBY1 130715Z 28006KT M01/M04 A2998 RMK A01 T10081044  RH  077%=      5-min Rain = 0
KBY1 130716Z 29007KT M01/M04 A2998 RMK A01 T10091043  RH  077%=      5-min Rain = 0
KBY1 130717Z 29005KT M01/M04 A2998 RMK A01 T10091044  RH  077%=      5-min Rain = 0
KBY1 130718Z 29005KT M01/M04 A2998 RMK A01 T10091044  RH  077%=      5-min Rain = 0
KBY1 130719Z 29006KT M01/M04 A2998 RMK A01 T10101044  RH  078%=      5-min Rain = 0
KBY1 130720Z 29006KT M01/M04 A2998 RMK A01 T10111044  RH  078%=      5-min Rain = 0
KBY1 130721Z 30006KT M01/M04 A2998 RMK A01 T10111044  RH  078%=      5-min Rain = 0
KBY1 130722Z 29007KT M01/M05 A2998 RMK A01 T10121045  RH  079%=      5-min Rain = 0
KBY1 130723Z 29006KT M01/M05 A2998 RMK A01 T10131045  RH  079%=      5-min Rain = 0
KBY1 130724Z 29006KT M01/M04 A2998 RMK A01 T10131044  RH  079%=      5-min Rain = 0
KBY1 130725Z 28006KT M01/M04 A2998 RMK A01 T10131044  RH  079%=      5-min Rain = 0
KBY1 130726Z 28006KT M01/M04 A2997 RMK A01 T10131044  RH  079%=      5-min Rain = 0
KBY1 130727Z 27006KT M01/M04 A2997 RMK A01 T10131044  RH  079%=      5-min Rain = 0
KBY1 130728Z 28006KT M01/M04 A2997 RMK A01 T10121044  RH  079%=      5-min Rain = 0
KBY1 130729Z 27006KT M01/M04 A2997 RMK A01 T10121044  RH  079%=      5-min Rain = 0
KBY1 130730Z 28006KT M01/M04 A2997 RMK A01 T10111044  RH  078%=      5-min Rain = 0
KBY1 130731Z 28005KT M01/M04 A2997 RMK A01 T10121044  RH  078%=      5-min Rain = 0
KBY1 130732Z 28005KT M01/M05 A2997 RMK A01 T10121045  RH  079%=      5-min Rain = 0
KBY1 130733Z 28006KT M01/M05 A2997 RMK A01 T10131045  RH  079%=      5-min Rain = 0
KBY1 130734Z 28006KT M01/M05 A2997 RMK A01 T10131045  RH  079%=      5-min Rain = 0
KBY1 130735Z 28005KT M01/M05 A2997 RMK A01 T10131045  RH  079%=      5-min Rain = 0
KBY1 130736Z 28005KT M01/M04 A2997 RMK A01 T10131044  RH  079%=      5-min Rain = 0
KBY1 130737Z 29003KT M01/M04 A2997 RMK A01 T10131044  RH  079%=      5-min Rain = 0
KBY1 130738Z 30002KT M01/M04 A2997 RMK A01 T10131044  RH  080%=      5-min Rain = 0
KBY1 130739Z 26002KT M01/M04 A2997 RMK A01 T10141044  RH  080%=      5-min Rain = 0
KBY1 130740Z 28002KT M01/M05 A2997 RMK A01 T10141045  RH  080%=      5-min Rain = 0
KBY1 130741Z 31000KT M01/M04 A2997 RMK A01 T10141044  RH  080%=      5-min Rain = 0
KBY1 130742Z 23000KT M02/M05 A2997 RMK A01 T10151045  RH  080%=      5-min Rain = 0
KBY1 130743Z 02000KT M02/M05 A2997 RMK A01 T10151045  RH  080%=      5-min Rain = 0
KBY1 130744Z 35002KT M02/M05 A2997 RMK A01 T10161046  RH  080%=      5-min Rain = 0
KBY1 130745Z 08001KT M02/M05 A2997 RMK A01 T10161046  RH  080%=      5-min Rain = 0
KBY1 130746Z 07000KT M02/M05 A2997 RMK A01 T10171046  RH  080%=      5-min Rain = 0
KBY1 130747Z 00000KT M02/M05 A2997 RMK A01 T10181047  RH  081%=      5-min Rain = 0
KBY1 130748Z 00000KT M02/M05 A2997 RMK A01 T10181046  RH  081%=      5-min Rain = 0
KBY1 130749Z 26000KT M02/M05 A2997 RMK A01 T10181046  RH  082%=      5-min Rain = 0
KBY1 130750Z 29000KT M02/M05 A2997 RMK A01 T10191046  RH  082%=      5-min Rain = 0
KBY1 130751Z 28001KT M02/M05 A2997 RMK A01 T10191046  RH  082%=      5-min Rain = 0
KBY1 130752Z 26003KT M02/M05 A2997 RMK A01 T10191046  RH  082%=      5-min Rain = 0
KBY1 130753Z 28003KT M02/M05 A2997 RMK A01 T10191046  RH  082%=      5-min Rain = 0
KBY1 130754Z 29003KT M02/M05 A2997 RMK A01 T10191046  RH  082%=      5-min Rain = 0
KBY1 130755Z 30004KT M02/M05 A2997 RMK A01 T10191046  RH  082%=      5-min Rain = 0
KBY1 130756Z 29004KT M02/M05 A2997 RMK A01 T10191045  RH  082%=      5-min Rain = 0
KBY1 130757Z 29004KT M02/M05 A2997 RMK A01 T10181045  RH  082%=      5-min Rain = 0
KBY1 130758Z 30005KT M02/M05 A2997 RMK A01 T10171045  RH  082%=      5-min Rain = 0
KBY1 130759Z 29005KT M02/M05 A2997 RMK A01 T10171045  RH  081%=      5-min Rain = 0
KBY1 130800Z 30004KT M02/M05 A2997 RMK A01 T10161045  RH  081%=      5-min Rain = 0
KBY1 130801Z 31004KT M02/M05 A2997 RMK A01 T10171046  RH  081%=      5-min Rain = 0
KBY1 130802Z 32002KT M02/M05 A2997 RMK A01 T10171046  RH  081%=      5-min Rain = 0
KBY1 130803Z 30002KT M02/M05 A2997 RMK A01 T10191047  RH  081%=      5-min Rain = 0
KBY1 130804Z 29003KT M02/M05 A2997 RMK A01 T10191047  RH  081%=      5-min Rain = 0
KBY1 130805Z 25001KT M02/M05 A2997 RMK A01 T10191046  RH  082%=      5-min Rain = 0
KBY1 130806Z 28000KT M02/M05 A2997 RMK A01 T10191046  RH  082%=      5-min Rain = 0
KBY1 130807Z 28002KT M02/M05 A2997 RMK A01 T10201046  RH  082%=      5-min Rain = 0
KBY1 130808Z 33001KT M02/M05 A2997 RMK A01 T10201046  RH  082%=      5-min Rain = 0
KBY1 130809Z 31001KT M02/M05 A2997 RMK A01 T10201047  RH  082%=      5-min Rain = 0
KBY1 130810Z 32002KT M02/M05 A2997 RMK A01 T10211047  RH  082%=      5-min Rain = 0
KBY1 130811Z 33001KT M02/M05 A2997 RMK A01 T10211047  RH  083%=      5-min Rain = 0
KBY1 130812Z 33002KT M02/M05 A2997 RMK A01 T10211047  RH  083%=      5-min Rain = 0
KBY1 130813Z 00002KT M02/M05 A2997 RMK A01 T10221047  RH  083%=      5-min Rain = 0
KBY1 130814Z 01003KT M02/M05 A2997 RMK A01 T10231048  RH  083%=      5-min Rain = 0
KBY1 130815Z 33002KT M02/M05 A2997 RMK A01 T10231047  RH  083%=      5-min Rain = 0
KBY1 130816Z 32005KT M02/M05 A2997 RMK A01 T10241048  RH  084%=      5-min Rain = 0
KBY1 130817Z 31005KT M02/M05 A2997 RMK A01 T10241047  RH  084%=      5-min Rain = 0
KBY1 130818Z 30006KT M02/M05 A2997 RMK A01 T10241047  RH  084%=      5-min Rain = 0
KBY1 130819Z 30006KT M02/M05 A2997 RMK A01 T10231046  RH  084%=      5-min Rain = 0
KBY1 130820Z 29005KT M02/M04 A2997 RMK A01 T10211044  RH  084%=      5-min Rain = 0
KBY1 130821Z 29005KT M02/M04 A2997 RMK A01 T10191044  RH  083%=      5-min Rain = 0
KBY1 130822Z 28005KT M02/M04 A2997 RMK A01 T10181044  RH  082%=      5-min Rain = 0
KBY1 130823Z 29005KT M02/M05 A2997 RMK A01 T10171045  RH  082%=      5-min Rain = 0
KBY1 130824Z 28005KT M02/M05 A2997 RMK A01 T10171045  RH  081%=      5-min Rain = 0
KBY1 130825Z 29005KT M02/M05 A2997 RMK A01 T10171045  RH  081%=      5-min Rain = 0
KBY1 130826Z 28005KT M02/M05 A2997 RMK A01 T10161045  RH  081%=      5-min Rain = 0
KBY1 130827Z 28005KT M02/M05 A2997 RMK A01 T10161045  RH  080%=      5-min Rain = 0
KBY1 130828Z 28005KT M02/M05 A2997 RMK A01 T10161046  RH  080%=      5-min Rain = 0
KBY1 130829Z 29004KT M02/M05 A2997 RMK A01 T10161046  RH  080%=      5-min Rain = 0
KBY1 130830Z 28006KT M02/M05 A2997 RMK A01 T10161046  RH  080%=      5-min Rain = 0
KBY1 130831Z 28004KT M02/M05 A2997 RMK A01 T10171046  RH  080%=      5-min Rain = 0
KBY1 130832Z 28005KT M02/M05 A2997 RMK A01 T10171046  RH  081%=      5-min Rain = 0
KBY1 130833Z 29005KT M02/M05 A2997 RMK A01 T10171046  RH  081%=      5-min Rain = 0
KBY1 130834Z 29005KT M02/M05 A2997 RMK A01 T10181046  RH  081%=      5-min Rain = 0
KBY1 130835Z 29003KT M02/M05 A2997 RMK A01 T10171045  RH  081%=      5-min Rain = 0
KBY1 130836Z 29003KT M02/M05 A2997 RMK A01 T10171045  RH  081%=      5-min Rain = 0
KBY1 130837Z 30003KT M02/M05 A2997 RMK A01 T10181046  RH  081%=      5-min Rain = 0
KBY1 130838Z 30003KT M02/M05 A2997 RMK A01 T10171045  RH  081%=      5-min Rain = 0
KBY1 130839Z 28004KT M02/M05 A2997 RMK A01 T10181046  RH  081%=      5-min Rain = 0
KBY1 130840Z 27001KT M02/M05 A2997 RMK A01 T10181046  RH  081%=      5-min Rain = 0
KBY1 130841Z 26002KT M02/M05 A2997 RMK A01 T10181046  RH  081%=      5-min Rain = 0
KBY1 130842Z 26003KT M02/M05 A2997 RMK A01 T10181046  RH  081%=      5-min Rain = 0
KBY1 130843Z 26003KT M02/M05 A2997 RMK A01 T10191047  RH  081%=      5-min Rain = 0
KBY1 130844Z 27003KT M02/M05 A2997 RMK A01 T10201048  RH  082%=      5-min Rain = 0
KBY1 130845Z 27004KT M02/M05 A2997 RMK A01 T10211048  RH  082%=      5-min Rain = 0
KBY1 130846Z 27004KT M02/M05 A2996 RMK A01 T10211047  RH  082%=      5-min Rain = 0
KBY1 130847Z 27004KT M02/M05 A2996 RMK A01 T10221048  RH  083%=      5-min Rain = 0
KBY1 130848Z 27004KT M02/M05 A2996 RMK A01 T10231048  RH  083%=      5-min Rain = 0
KBY1 130849Z 27004KT M02/M05 A2996 RMK A01 T10231048  RH  083%=      5-min Rain = 0
KBY1 130850Z 27005KT M02/M05 A2996 RMK A01 T10241049  RH  083%=      5-min Rain = 0
KBY1 130851Z 27005KT M02/M05 A2996 RMK A01 T10241048  RH  084%=      5-min Rain = 0
KBY1 130852Z 28004KT M02/M05 A2996 RMK A01 T10231045  RH  085%=      5-min Rain = 0
KBY1 130853Z 29005KT M02/M04 A2996 RMK A01 T10211044  RH  084%=      5-min Rain = 0
KBY1 130854Z 29003KT M02/M04 A2997 RMK A01 T10201044  RH  083%=      5-min Rain = 0
KBY1 130855Z 28004KT M02/M05 A2997 RMK A01 T10201045  RH  083%=      5-min Rain = 0
KBY1 130856Z 28003KT M02/M05 A2997 RMK A01 T10201045  RH  083%=      5-min Rain = 0
KBY1 130857Z 27003KT M02/M05 A2997 RMK A01 T10201045  RH  083%=      5-min Rain = 0
KBY1 130858Z 27003KT M02/M05 A2996 RMK A01 T10191045  RH  083%=      5-min Rain = 0
KBY1 130859Z 27003KT M02/M05 A2996 RMK A01 T10201045  RH  083%=      5-min Rain = 0
KBY1 130900Z 26003KT M02/M05 A2996 RMK A01 T10201045  RH  083%=      5-min Rain = 0
KBY1 130901Z 27003KT M02/M05 A2996 RMK A01 T10201045  RH  083%=      5-min Rain = 0
KBY1 130902Z 28003KT M02/M05 A2996 RMK A01 T10201045  RH  083%=      5-min Rain = 0
KBY1 130903Z 26003KT M02/M05 A2996 RMK A01 T10201046  RH  083%=      5-min Rain = 0
KBY1 130904Z 27003KT M02/M05 A2996 RMK A01 T10211046  RH  083%=      5-min Rain = 0
KBY1 130905Z 27003KT M02/M05 A2996 RMK A01 T10221047  RH  083%=      5-min Rain = 0
KBY1 130906Z 28004KT M02/M05 A2996 RMK A01 T10231047  RH  083%=      5-min Rain = 0
KBY1 130907Z 28004KT M02/M05 A2996 RMK A01 T10231046  RH  084%=      5-min Rain = 0
KBY1 130908Z 29004KT M02/M05 A2996 RMK A01 T10211045  RH  084%=      5-min Rain = 0
KBY1 130909Z 27002KT M02/M05 A2996 RMK A01 T10211045  RH  084%=      5-min Rain = 0
KBY1 130910Z 29003KT M02/M05 A2996 RMK A01 T10211045  RH  083%=      5-min Rain = 0
KBY1 130911Z 29004KT M02/M05 A2996 RMK A01 T10211045  RH  083%=      5-min Rain = 0
KBY1 130912Z 29003KT M02/M05 A2996 RMK A01 T10211045  RH  083%=      5-min Rain = 0
KBY1 130913Z 32003KT M02/M05 A2996 RMK A01 T10201045  RH  083%=      5-min Rain = 0
KBY1 130914Z 32003KT M02/M05 A2996 RMK A01 T10201045  RH  083%=      5-min Rain = 0
KBY1 130915Z 31003KT M02/M05 A2996 RMK A01 T10211045  RH  083%=      5-min Rain = 0
KBY1 130916Z 30003KT M02/M05 A2996 RMK A01 T10211046  RH  083%=      5-min Rain = 0
KBY1 130917Z 30003KT M02/M05 A2996 RMK A01 T10211046  RH  083%=      5-min Rain = 0
KBY1 130918Z 29002KT M02/M05 A2996 RMK A01 T10221046  RH  084%=      5-min Rain = 0
KBY1 130919Z 30002KT M02/M05 A2996 RMK A01 T10221046  RH  084%=      5-min Rain = 0
KBY1 130920Z 29001KT M02/M05 A2996 RMK A01 T10221046  RH  084%=      5-min Rain = 0
KBY1 130926Z 32002KT M03/M05 A2996 RMK A01 T10251047  RH  085%=      5-min Rain = 0
KBY1 130927Z 29002KT M03/M05 A2996 RMK A01 T10251047  RH  085%=      5-min Rain = 0
KBY1 130928Z 29002KT M03/M05 A2996 RMK A01 T10251047  RH  085%=      5-min Rain = 0
KBY1 130929Z 29004KT M03/M05 A2996 RMK A01 T10251047  RH  085%=      5-min Rain = 0
KBY1 130930Z 29004KT M03/M05 A2996 RMK A01 T10251047  RH  085%=      5-min Rain = 0
KBY1 130931Z 29005KT M02/M05 A2996 RMK A01 T10241046  RH  085%=      5-min Rain = 0
KBY1 130932Z 29005KT M02/M05 A2996 RMK A01 T10241046  RH  085%=      5-min Rain = 0
KBY1 130933Z 29004KT M02/M05 A2996 RMK A01 T10241046  RH  085%=      5-min Rain = 0
KBY1 130934Z 29005KT M02/M05 A2996 RMK A01 T10241046  RH  085%=      5-min Rain = 0
KBY1 130935Z 29005KT M02/M05 A2996 RMK A01 T10241046  RH  085%=      5-min Rain = 0
KBY1 130936Z 29004KT M03/M05 A2996 RMK A01 T10251047  RH  085%=      5-min Rain = 0
KBY1 130937Z 29006KT M02/M05 A2996 RMK A01 T10241046  RH  085%=      5-min Rain = 0
KBY1 130938Z 28006KT M02/M05 A2996 RMK A01 T10241046  RH  085%=      5-min Rain = 0
KBY1 130939Z 28004KT M02/M05 A2996 RMK A01 T10241046  RH  085%=      5-min Rain = 0
KBY1 130940Z 28005KT M02/M05 A2996 RMK A01 T10231046  RH  084%=      5-min Rain = 0
KBY1 130941Z 28003KT M02/M05 A2996 RMK A01 T10231046  RH  084%=      5-min Rain = 0
KBY1 130942Z 28003KT M02/M05 A2996 RMK A01 T10241047  RH  084%=      5-min Rain = 0
KBY1 130943Z 28005KT M03/M05 A2996 RMK A01 T10251047  RH  084%=      5-min Rain = 0
KBY1 130944Z 29006KT M03/M05 A2996 RMK A01 T10251047  RH  085%=      5-min Rain = 0
KBY1 130945Z 28004KT M02/M05 A2996 RMK A01 T10241046  RH  085%=      5-min Rain = 0
KBY1 130946Z 28003KT M02/M05 A2996 RMK A01 T10231046  RH  085%=      5-min Rain = 0
KBY1 130947Z 27003KT M02/M05 A2996 RMK A01 T10241046  RH  084%=      5-min Rain = 0
KBY1 130948Z 26005KT M02/M05 A2996 RMK A01 T10241046  RH  084%=      5-min Rain = 0
KBY1 130949Z 26005KT M02/M05 A2996 RMK A01 T10241047  RH  085%=      5-min Rain = 0
KBY1 130950Z 26005KT M03/M05 A2996 RMK A01 T10251047  RH  085%=      5-min Rain = 0
KBY1 130951Z 26005KT M03/M05 A2996 RMK A01 T10251047  RH  085%=      5-min Rain = 0
KBY1 130952Z 27004KT M03/M05 A2996 RMK A01 T10251047  RH  085%=      5-min Rain = 0
KBY1 130953Z 27004KT M03/M05 A2996 RMK A01 T10261047  RH  085%=      5-min Rain = 0
KBY1 130954Z 26004KT M03/M05 A2996 RMK A01 T10261047  RH  086%=      5-min Rain = 0
KBY1 130955Z 26004KT M03/M05 A2996 RMK A01 T10261046  RH  086%=      5-min Rain = 0
KBY1 130956Z 26003KT M03/M05 A2996 RMK A01 T10261047  RH  086%=      5-min Rain = 0
KBY1 130957Z 26003KT M03/M05 A2996 RMK A01 T10271047  RH  086%=      5-min Rain = 0
KBY1 130958Z 26003KT M03/M05 A2996 RMK A01 T10271048  RH  086%=      5-min Rain = 0
KBY1 130959Z 25002KT M03/M05 A2996 RMK A01 T10281048  RH  086%=      5-min Rain = 0
KBY1 131000Z 26002KT M03/M05 A2996 RMK A01 T10281048  RH  086%=      5-min Rain = 0
KBY1 131001Z 26002KT M03/M05 A2996 RMK A01 T10291049  RH  087%=      5-min Rain = 0
KBY1 131002Z 27002KT M03/M05 A2996 RMK A01 T10301049  RH  087%=      5-min Rain = 0
KBY1 131003Z 29003KT M03/M05 A2996 RMK A01 T10301048  RH  087%=      5-min Rain = 0
KBY1 131004Z 28003KT M03/M05 A2996 RMK A01 T10301048  RH  087%=      5-min Rain = 0
KBY1 131005Z 28003KT M03/M05 A2996 RMK A01 T10301048  RH  088%=      5-min Rain = 0
KBY1 131006Z 27002KT M03/M05 A2996 RMK A01 T10291047  RH  088%=      5-min Rain = 0
KBY1 131007Z 29004KT M03/M05 A2996 RMK A01 T10281046  RH  088%=      5-min Rain = 0
KBY1 131008Z 29003KT M03/M05 A2996 RMK A01 T10271045  RH  087%=      5-min Rain = 0
KBY1 131009Z 28003KT M03/M05 A2996 RMK A01 T10271046  RH  087%=      5-min Rain = 0
KBY1 131010Z 30003KT M03/M05 A2996 RMK A01 T10271046  RH  086%=      5-min Rain = 0
KBY1 131011Z 29004KT M03/M05 A2996 RMK A01 T10261046  RH  086%=      5-min Rain = 0
KBY1 131012Z 29004KT M03/M05 A2996 RMK A01 T10251047  RH  085%=      5-min Rain = 0
KBY1 131013Z 29004KT M03/M05 A2996 RMK A01 T10251047  RH  085%=      5-min Rain = 0
KBY1 131014Z 27003KT M03/M05 A2995 RMK A01 T10261047  RH  085%=      5-min Rain = 0
KBY1 131015Z 26003KT M03/M05 A2995 RMK A01 T10261048  RH  085%=      5-min Rain = 0
KBY1 131016Z 24002KT M03/M05 A2995 RMK A01 T10271049  RH  085%=      5-min Rain = 0
KBY1 131017Z 22002KT M03/M05 A2995 RMK A01 T10281049  RH  085%=      5-min Rain = 0
KBY1 131018Z 22001KT M03/M05 A2995 RMK A01 T10301051  RH  085%=      5-min Rain = 0
KBY1 131019Z 20001KT M03/M05 A2995 RMK A01 T10311051  RH  086%=      5-min Rain = 0
KBY1 131020Z 23002KT M03/M05 A2995 RMK A01 T10311051  RH  086%=      5-min Rain = 0
KBY1 131021Z 23002KT M03/M05 A2995 RMK A01 T10321052  RH  086%=      5-min Rain = 0
KBY1 131022Z 25001KT M03/M05 A2996 RMK A01 T10331052  RH  087%=      5-min Rain = 0
KBY1 131023Z 25002KT M03/M05 A2996 RMK A01 T10331052  RH  087%=      5-min Rain = 0
KBY1 131024Z 26002KT M03/M05 A2996 RMK A01 T10331051  RH  088%=      5-min Rain = 0
KBY1 131025Z 27003KT M03/M05 A2996 RMK A01 T10331050  RH  088%=      5-min Rain = 0
KBY1 131026Z 26003KT M03/M05 A2996 RMK A01 T10331050  RH  088%=      5-min Rain = 0
KBY1 131027Z 26003KT M03/M05 A2996 RMK A01 T10341050  RH  088%=      5-min Rain = 0
KBY1 131028Z 26003KT M03/M05 A2995 RMK A01 T10341050  RH  088%=      5-min Rain = 0
KBY1 131029Z 27004KT M03/M05 A2995 RMK A01 T10341050  RH  089%=      5-min Rain = 0
KBY1 131030Z 27004KT M03/M05 A2995 RMK A01 T10341050  RH  089%=      5-min Rain = 0
KBY1 131031Z 26004KT M03/M05 A2995 RMK A01 T10341050  RH  089%=      5-min Rain = 0
KBY1 131032Z 26004KT M03/M05 A2995 RMK A01 T10341049  RH  089%=      5-min Rain = 0
KBY1 131033Z 27003KT M03/M05 A2996 RMK A01 T10341049  RH  089%=      5-min Rain = 0
KBY1 131034Z 27003KT M03/M05 A2996 RMK A01 T10331048  RH  089%=      5-min Rain = 0
KBY1 131035Z 28003KT M03/M05 A2996 RMK A01 T10331049  RH  089%=      5-min Rain = 0
KBY1 131036Z 28005KT M03/M05 A2996 RMK A01 T10331049  RH  089%=      5-min Rain = 0
KBY1 131037Z 29005KT M03/M05 A2995 RMK A01 T10321048  RH  089%=      5-min Rain = 0
KBY1 131038Z 28006KT M03/M05 A2995 RMK A01 T10311047  RH  089%=      5-min Rain = 0
KBY1 131039Z 28006KT M03/M05 A2995 RMK A01 T10301047  RH  088%=      5-min Rain = 0
KBY1 131040Z 27006KT M03/M05 A2995 RMK A01 T10281046  RH  087%=      5-min Rain = 0
KBY1 131041Z 28006KT M03/M05 A2995 RMK A01 T10281047  RH  087%=      5-min Rain = 0
KBY1 131042Z 28006KT M03/M05 A2995 RMK A01 T10281048  RH  086%=      5-min Rain = 0
KBY1 131043Z 28005KT M03/M05 A2995 RMK A01 T10281048  RH  086%=      5-min Rain = 0
KBY1 131044Z 27005KT M03/M05 A2995 RMK A01 T10281048  RH  086%=      5-min Rain = 0
KBY1 131045Z 27004KT M03/M05 A2995 RMK A01 T10281048  RH  086%=      5-min Rain = 0
KBY1 131046Z 27005KT M03/M05 A2995 RMK A01 T10281048  RH  086%=      5-min Rain = 0
KBY1 131047Z 27006KT M03/M05 A2995 RMK A01 T10281048  RH  086%=      5-min Rain = 0
KBY1 131048Z 28005KT M03/M05 A2995 RMK A01 T10281048  RH  086%=      5-min Rain = 0
KBY1 131049Z 28005KT M03/M05 A2994 RMK A01 T10281048  RH  086%=      5-min Rain = 0
KBY1 131050Z 28006KT M03/M05 A2994 RMK A01 T10281048  RH  086%=      5-min Rain = 0
KBY1 131051Z 28006KT M03/M05 A2994 RMK A01 T10281048  RH  087%=      5-min Rain = 0
KBY1 131052Z 29007KT M03/M05 A2994 RMK A01 T10271046  RH  087%=      5-min Rain = 0
KBY1 131053Z 29006KT M03/M05 A2994 RMK A01 T10261045  RH  086%=      5-min Rain = 0
KBY1 131054Z 31008KT M03/M05 A2994 RMK A01 T10251045  RH  086%=      5-min Rain = 0
KBY1 131055Z 30006KT M02/M05 A2994 RMK A01 T10241045  RH  085%=      5-min Rain = 0
KBY1 131056Z 30006KT M02/M05 A2994 RMK A01 T10231046  RH  085%=      5-min Rain = 0
KBY1 131057Z 29005KT M02/M05 A2994 RMK A01 T10241046  RH  085%=      5-min Rain = 0
KBY1 131058Z 30003KT M02/M05 A2994 RMK A01 T10231046  RH  084%=      5-min Rain = 0
KBY1 131059Z 31004KT M02/M05 A2994 RMK A01 T10231046  RH  084%=      5-min Rain = 0
KBY1 131100Z 31005KT M02/M05 A2994 RMK A01 T10231047  RH  084%=      5-min Rain = 0
KBY1 131101Z 30003KT M02/M05 A2994 RMK A01 T10231046  RH  084%=      5-min Rain = 0
KBY1 131102Z 29002KT M02/M05 A2994 RMK A01 T10231046  RH  084%=      5-min Rain = 0
KBY1 131103Z 28002KT M02/M05 A2994 RMK A01 T10231046  RH  085%=      5-min Rain = 0
KBY1 131104Z 29001KT M02/M05 A2994 RMK A01 T10231046  RH  085%=      5-min Rain = 0
KBY1 131105Z 25001KT M02/M05 A2994 RMK A01 T10231045  RH  085%=      5-min Rain = 0
KBY1 131106Z 29001KT M02/M05 A2995 RMK A01 T10231046  RH  084%=      5-min Rain = 0
KBY1 131107Z 27001KT M02/M05 A2995 RMK A01 T10221046  RH  084%=      5-min Rain = 0
KBY1 131108Z 29001KT M02/M05 A2995 RMK A01 T10221046  RH  084%=      5-min Rain = 0
KBY1 131109Z 28001KT M02/M05 A2995 RMK A01 T10231046  RH  084%=      5-min Rain = 0
KBY1 131110Z 25002KT M02/M05 A2995 RMK A01 T10231046  RH  084%=      5-min Rain = 0
KBY1 131111Z 28003KT M02/M05 A2994 RMK A01 T10231046  RH  084%=      5-min Rain = 0
KBY1 131112Z 29004KT M02/M05 A2994 RMK A01 T10241047  RH  084%=      5-min Rain = 0
KBY1 131113Z 27002KT M02/M05 A2994 RMK A01 T10231046  RH  084%=      5-min Rain = 0
KBY1 131114Z 30000KT M02/M05 A2994 RMK A01 T10241046  RH  084%=      5-min Rain = 0
KBY1 131115Z 29002KT M02/M05 A2994 RMK A01 T10231046  RH  084%=      5-min Rain = 0
KBY1 131116Z 28002KT M02/M05 A2994 RMK A01 T10231046  RH  084%=      5-min Rain = 0
KBY1 131117Z 25002KT M02/M05 A2994 RMK A01 T10241047  RH  084%=      5-min Rain = 0
KBY1 131118Z 26003KT M03/M05 A2994 RMK A01 T10251048  RH  084%=      5-min Rain = 0
KBY1 131119Z 26003KT M03/M05 A2994 RMK A01 T10261049  RH  084%=      5-min Rain = 0
KBY1 131120Z 27002KT M03/M05 A2994 RMK A01 T10271049  RH  085%=      5-min Rain = 0
KBY1 131121Z 28003KT M03/M05 A2994 RMK A01 T10281049  RH  086%=      5-min Rain = 0
KBY1 131122Z 29004KT M03/M05 A2994 RMK A01 T10281048  RH  086%=      5-min Rain = 0
KBY1 131123Z 28006KT M03/M05 A2994 RMK A01 T10271048  RH  086%=      5-min Rain = 0
KBY1 131124Z 28007KT M03/M05 A2994 RMK A01 T10271047  RH  086%=      5-min Rain = 0
KBY1 131125Z 28007KT M03/M05 A2994 RMK A01 T10271047  RH  086%=      5-min Rain = 0
KBY1 131126Z 27006KT M03/M05 A2994 RMK A01 T10271047  RH  086%=      5-min Rain = 0
KBY1 131127Z 27006KT M03/M05 A2994 RMK A01 T10271048  RH  085%=      5-min Rain = 0
KBY1 131128Z 29008KT M03/M05 A2994 RMK A01 T10271048  RH  085%=      5-min Rain = 0
KBY1 131129Z 29009KT M03/M05 A2994 RMK A01 T10271048  RH  086%=      5-min Rain = 0
KBY1 131130Z 29008KT M03/M05 A2994 RMK A01 T10261047  RH  086%=      5-min Rain = 0
KBY1 131131Z 28008KT M03/M05 A2994 RMK A01 T10251046  RH  086%=      5-min Rain = 0
KBY1 131132Z 28006KT M03/M05 A2994 RMK A01 T10251047  RH  085%=      5-min Rain = 0
KBY1 131133Z 28009KT M03/M05 A2994 RMK A01 T10251047  RH  085%=      5-min Rain = 0
KBY1 131134Z 28008KT M03/M05 A2994 RMK A01 T10251047  RH  085%=      5-min Rain = 0
KBY1 131135Z 28011KT M03/M05 A2994 RMK A01 T10251047  RH  085%=      5-min Rain = 0
KBY1 131136Z 29010KT M02/M05 A2994 RMK A01 T10241046  RH  085%=      5-min Rain = 0
KBY1 131137Z 28010KT M02/M05 A2994 RMK A01 T10231046  RH  084%=      5-min Rain = 0
KBY1 131138Z 28009KT M02/M05 A2994 RMK A01 T10231046  RH  084%=      5-min Rain = 0
KBY1 131139Z 29009KT M02/M05 A2994 RMK A01 T10221047  RH  083%=      5-min Rain = 0
KBY1 131140Z 28009KT M02/M05 A2994 RMK A01 T10221047  RH  083%=      5-min Rain = 0
KBY1 131141Z 28009KT M02/M05 A2994 RMK A01 T10221047  RH  083%=      5-min Rain = 0
KBY1 131142Z 28010KT M02/M05 A2994 RMK A01 T10221047  RH  083%=      5-min Rain = 0
KBY1 131143Z 28010KT M02/M05 A2994 RMK A01 T10221047  RH  083%=      5-min Rain = 0
KBY1 131144Z 28009KT M02/M05 A2994 RMK A01 T10221047  RH  083%=      5-min Rain = 0
KBY1 131145Z 29009KT M02/M05 A2994 RMK A01 T10221047  RH  083%=      5-min Rain = 0
KBY1 131146Z 29009KT M02/M05 A2994 RMK A01 T10221047  RH  083%=      5-min Rain = 0
KBY1 131147Z 29010KT M02/M05 A2994 RMK A01 T10231047  RH  083%=      5-min Rain = 0
KBY1 131148Z 29010KT M02/M05 A2994 RMK A01 T10231047  RH  084%=      5-min Rain = 0
KBY1 131149Z 28010KT M02/M05 A2994 RMK A01 T10221047  RH  083%=      5-min Rain = 0
KBY1 131150Z 28009G14KT M02/M05 A2994 RMK A01 T10221047  RH  083%=      5-min Rain = 0
KBY1 131151Z 28009KT M02/M05 A2994 RMK A01 T10231047  RH  083%=      5-min Rain = 0
KBY1 131152Z 28009KT M02/M05 A2994 RMK A01 T10231047  RH  083%=      5-min Rain = 0
KBY1 131153Z 28009KT M02/M05 A2994 RMK A01 T10231047  RH  084%=      5-min Rain = 0
KBY1 131154Z 29010KT M02/M05 A2994 RMK A01 T10231047  RH  084%=      5-min Rain = 0
KBY1 131155Z 29010KT M02/M05 A2994 RMK A01 T10231047  RH  084%=      5-min Rain = 0
KBY1 131156Z 30008KT M02/M05 A2994 RMK A01 T10231047  RH  084%=      5-min Rain = 0
KBY1 131157Z 29007KT M02/M05 A2994 RMK A01 T10231047  RH  083%=      5-min Rain = 0
KBY1 131158Z 30009KT M02/M05 A2994 RMK A01 T10241048  RH  084%=      5-min Rain = 0
KBY1 131159Z 30008KT M02/M05 A2994 RMK A01 T10241048  RH  084%=      5-min Rain = 0
KBY1 131200Z 31008KT M03/M05 A2994 RMK A01 T10251048  RH  084%=      5-min Rain = 0
KBY1 131201Z 31008KT M03/M05 A2994 RMK A01 T10251048  RH  084%=      5-min Rain = 0
KBY1 131202Z 31008KT M03/M05 A2994 RMK A01 T10261049  RH  084%=      5-min Rain = 0
KBY1 131203Z 30007KT M03/M05 A2994 RMK A01 T10271049  RH  084%=      5-min Rain = 0
KBY1 131204Z 31008KT M03/M05 A2994 RMK A01 T10271050  RH  085%=      5-min Rain = 0
KBY1 131205Z 30008KT M03/M05 A2994 RMK A01 T10271049  RH  085%=      5-min Rain = 0
KBY1 131206Z 31009KT M03/M05 A2994 RMK A01 T10271048  RH  085%=      5-min Rain = 0
KBY1 131207Z 30009KT M03/M05 A2994 RMK A01 T10251046  RH  086%=      5-min Rain = 0
KBY1 131208Z 30009KT M02/M05 A2993 RMK A01 T10241046  RH  085%=      5-min Rain = 0
KBY1 131209Z 30008KT M02/M05 A2993 RMK A01 T10231046  RH  084%=      5-min Rain = 0
KBY1 131210Z 30007KT M02/M05 A2993 RMK A01 T10231046  RH  084%=      5-min Rain = 0
KBY1 131216Z 30008KT M02/M05 A2994 RMK A01 T10231048  RH  084%=      5-min Rain = 0
KBY1 131217Z 30007KT M02/M05 A2994 RMK A01 T10241048  RH  084%=      5-min Rain = 0
KBY1 131218Z 29006KT M02/M05 A2994 RMK A01 T10241047  RH  084%=      5-min Rain = 0
KBY1 131219Z 30007KT M02/M05 A2993 RMK A01 T10241048  RH  084%=      5-min Rain = 0
KBY1 131220Z 30007KT M02/M05 A2993 RMK A01 T10241048  RH  084%=      5-min Rain = 0
KBY1 131221Z 30006KT M02/M05 A2993 RMK A01 T10241048  RH  084%=      5-min Rain = 0
KBY1 131222Z 30006KT M03/M05 A2993 RMK A01 T10251048  RH  084%=      5-min Rain = 0
KBY1 131223Z 30007KT M03/M05 A2994 RMK A01 T10261049  RH  084%=      5-min Rain = 0
KBY1 131224Z 29008KT M03/M05 A2994 RMK A01 T10261049  RH  084%=      5-min Rain = 0
KBY1 131225Z 30008KT M03/M05 A2994 RMK A01 T10271049  RH  085%=      5-min Rain = 0
KBY1 131226Z 30008KT M03/M05 A2994 RMK A01 T10271049  RH  085%=      5-min Rain = 0
KBY1 131227Z 30007KT M03/M05 A2994 RMK A01 T10271049  RH  085%=      5-min Rain = 0
KBY1 131228Z 30006KT M03/M05 A2994 RMK A01 T10271049  RH  085%=      5-min Rain = 0
KBY1 131229Z 30008KT M03/M05 A2994 RMK A01 T10271049  RH  085%=      5-min Rain = 0
KBY1 131230Z 30006KT M03/M05 A2994 RMK A01 T10271049  RH  085%=      5-min Rain = 0
KBY1 131231Z 30006KT M03/M05 A2994 RMK A01 T10271049  RH  085%=      5-min Rain = 0
KBY1 131232Z 30006KT M03/M05 A2994 RMK A01 T10261048  RH  085%=      5-min Rain = 0
KBY1 131233Z 29006KT M03/M05 A2994 RMK A01 T10261048  RH  085%=      5-min Rain = 0
KBY1 131234Z 30006KT M03/M05 A2994 RMK A01 T10251048  RH  085%=      5-min Rain = 0
KBY1 131235Z 29007KT M03/M05 A2994 RMK A01 T10251048  RH  084%=      5-min Rain = 0
KBY1 131236Z 29006KT M02/M05 A2993 RMK A01 T10241047  RH  084%=      5-min Rain = 0
KBY1 131237Z 29006KT M02/M05 A2993 RMK A01 T10241047  RH  084%=      5-min Rain = 0
KBY1 131238Z 29005KT M02/M05 A2993 RMK A01 T10241048  RH  084%=      5-min Rain = 0
KBY1 131239Z 28005KT M02/M05 A2993 RMK A01 T10241048  RH  083%=      5-min Rain = 0
KBY1 131240Z 27005KT M03/M05 A2993 RMK A01 T10251049  RH  083%=      5-min Rain = 0
KBY1 131241Z 28006KT M03/M05 A2993 RMK A01 T10261050  RH  084%=      5-min Rain = 0
KBY1 131242Z 27005KT M03/M05 A2993 RMK A01 T10261049  RH  084%=      5-min Rain = 0
KBY1 131243Z 28005KT M03/M05 A2993 RMK A01 T10261049  RH  084%=      5-min Rain = 0
KBY1 131244Z 27006KT M03/M05 A2993 RMK A01 T10261048  RH  085%=      5-min Rain = 0
KBY1 131245Z 27006KT M03/M05 A2994 RMK A01 T10261048  RH  085%=      5-min Rain = 0
KBY1 131246Z 27007KT M03/M05 A2994 RMK A01 T10261048  RH  085%=      5-min Rain = 0
KBY1 131247Z 28007KT M03/M05 A2994 RMK A01 T10261048  RH  085%=      5-min Rain = 0
KBY1 131248Z 28006KT M03/M05 A2994 RMK A01 T10261047  RH  085%=      5-min Rain = 0
KBY1 131249Z 27006KT M03/M05 A2994 RMK A01 T10251047  RH  085%=      5-min Rain = 0
KBY1 131250Z 28006KT M03/M05 A2994 RMK A01 T10251047  RH  085%=      5-min Rain = 0
KBY1 131251Z 27006KT M03/M05 A2994 RMK A01 T10251047  RH  085%=      5-min Rain = 0
KBY1 131252Z 28007KT M02/M05 A2994 RMK A01 T10241046  RH  085%=      5-min Rain = 0
KBY1 131253Z 28007KT M02/M05 A2994 RMK A01 T10241046  RH  085%=      5-min Rain = 0
KBY1 131254Z 28006KT M02/M05 A2993 RMK A01 T10231046  RH  084%=      5-min Rain = 0
KBY1 131255Z 28007KT M02/M05 A2993 RMK A01 T10231046  RH  084%=      5-min Rain = 0
KBY1 131256Z 29006KT M02/M05 A2993 RMK A01 T10221046  RH  084%=      5-min Rain = 0
KBY1 131257Z 29006KT M02/M05 A2994 RMK A01 T10221046  RH  084%=      5-min Rain = 0
KBY1 131258Z 29007KT M02/M05 A2994 RMK A01 T10211046  RH  083%=      5-min Rain = 0
KBY1 131259Z 29006KT M02/M05 A2994 RMK A01 T10221046  RH  083%=      5-min Rain = 0
KBY1 131300Z 30006KT M02/M05 A2994 RMK A01 T10211046  RH  083%=      5-min Rain = 0
KBY1 131301Z 30005KT M02/M05 A2994 RMK A01 T10211046  RH  083%=      5-min Rain = 0
KBY1 131302Z 30005KT M02/M05 A2994 RMK A01 T10211047  RH  083%=      5-min Rain = 0
KBY1 131303Z 31004KT M02/M05 A2994 RMK A01 T10221047  RH  083%=      5-min Rain = 0
KBY1 131304Z 31005KT M02/M05 A2994 RMK A01 T10231048  RH  083%=      5-min Rain = 0
KBY1 131305Z 32005KT M02/M05 A2994 RMK A01 T10241048  RH  083%=      5-min Rain = 0
KBY1 131306Z 31003KT M02/M05 A2994 RMK A01 T10241048  RH  084%=      5-min Rain = 0
KBY1 131307Z 32004KT M03/M05 A2994 RMK A01 T10251048  RH  084%=      5-min Rain = 0
KBY1 131308Z 31005KT M03/M05 A2994 RMK A01 T10261049  RH  084%=      5-min Rain = 0
KBY1 131309Z 30004KT M03/M05 A2994 RMK A01 T10271049  RH  085%=      5-min Rain = 0
KBY1 131310Z 30004KT M03/M05 A2994 RMK A01 T10271048  RH  085%=      5-min Rain = 0
KBY1 131311Z 30003KT M03/M05 A2994 RMK A01 T10261048  RH  085%=      5-min Rain = 0
KBY1 131312Z 30004KT M03/M05 A2994 RMK A01 T10271048  RH  085%=      5-min Rain = 0
KBY1 131313Z 30004KT M03/M05 A2994 RMK A01 T10271048  RH  085%=      5-min Rain = 0
KBY1 131314Z 29005KT M03/M05 A2994 RMK A01 T10271048  RH  085%=      5-min Rain = 0
KBY1 131315Z 29004KT M03/M05 A2994 RMK A01 T10261047  RH  086%=      5-min Rain = 0
KBY1 131316Z 27002KT M03/M05 A2994 RMK A01 T10251046  RH  085%=      5-min Rain = 0
KBY1 131317Z 28004KT M03/M05 A2994 RMK A01 T10251047  RH  085%=      5-min Rain = 0
KBY1 131318Z 27003KT M03/M05 A2994 RMK A01 T10251048  RH  085%=      5-min Rain = 0
KBY1 131319Z 28003KT M03/M05 A2994 RMK A01 T10251048  RH  085%=      5-min Rain = 0
KBY1 131320Z 27002KT M03/M05 A2994 RMK A01 T10251048  RH  085%=      5-min Rain = 0
KBY1 131321Z 28004KT M03/M05 A2994 RMK A01 T10251048  RH  084%=      5-min Rain = 0
KBY1 131322Z 28003KT M03/M05 A2994 RMK A01 T10251048  RH  084%=      5-min Rain = 0
KBY1 131323Z 29003KT M03/M05 A2994 RMK A01 T10261049  RH  084%=      5-min Rain = 0
KBY1 131324Z 28003KT M03/M05 A2994 RMK A01 T10261049  RH  084%=      5-min Rain = 0
KBY1 131325Z 28004KT M03/M05 A2994 RMK A01 T10261048  RH  085%=      5-min Rain = 0
KBY1 131326Z 29004KT M03/M05 A2994 RMK A01 T10261049  RH  085%=      5-min Rain = 0
KBY1 131327Z 28004KT M03/M05 A2994 RMK A01 T10261048  RH  085%=      5-min Rain = 0
KBY1 131328Z 28005KT M03/M05 A2994 RMK A01 T10251048  RH  084%=      5-min Rain = 0
KBY1 131329Z 28005KT M03/M05 A2994 RMK A01 T10251048  RH  084%=      5-min Rain = 0
KBY1 131330Z 28004KT M03/M05 A2994 RMK A01 T10251048  RH  084%=      5-min Rain = 0
KBY1 131331Z 29005KT M02/M05 A2994 RMK A01 T10241048  RH  084%=      5-min Rain = 0
KBY1 131332Z 28005KT M02/M05 A2994 RMK A01 T10231046  RH  084%=      5-min Rain = 0
KBY1 131333Z 27005KT M02/M05 A2994 RMK A01 T10221046  RH  084%=      5-min Rain = 0
KBY1 131334Z 27006KT M02/M05 A2994 RMK A01 T10221047  RH  083%=      5-min Rain = 0
KBY1 131335Z 28006KT M02/M05 A2994 RMK A01 T10221047  RH  083%=      5-min Rain = 0
KBY1 131336Z 28005KT M02/M05 A2994 RMK A01 T10211047  RH  082%=      5-min Rain = 0
KBY1 131337Z 27006KT M02/M05 A2994 RMK A01 T10211046  RH  082%=      5-min Rain = 0
KBY1 131338Z 27006KT M02/M05 A2994 RMK A01 T10201046  RH  082%=      5-min Rain = 0
KBY1 131339Z 28005KT M02/M05 A2994 RMK A01 T10201047  RH  082%=      5-min Rain = 0
KBY1 131340Z 28005KT M02/M05 A2994 RMK A01 T10211047  RH  082%=      5-min Rain = 0
KBY1 131341Z 28007KT M02/M05 A2994 RMK A01 T10211047  RH  083%=      5-min Rain = 0
KBY1 131342Z 28006KT M02/M05 A2994 RMK A01 T10211046  RH  083%=      5-min Rain = 0
KBY1 131343Z 28007KT M02/M05 A2994 RMK A01 T10211047  RH  083%=      5-min Rain = 0
KBY1 131344Z 28006KT M02/M05 A2994 RMK A01 T10221047  RH  083%=      5-min Rain = 0
KBY1 131345Z 27007KT M02/M05 A2994 RMK A01 T10221047  RH  083%=      5-min Rain = 0
KBY1 131346Z 28007KT M02/M05 A2994 RMK A01 T10231047  RH  083%=      5-min Rain = 0
KBY1 131347Z 28008KT M02/M05 A2994 RMK A01 T10221047  RH  083%=      5-min Rain = 0
KBY1 131348Z 29008KT M02/M05 A2994 RMK A01 T10221046  RH  083%=      5-min Rain = 0
KBY1 131349Z 28008KT M02/M05 A2994 RMK A01 T10211046  RH  083%=      5-min Rain = 0
KBY1 131350Z 29009KT M02/M05 A2994 RMK A01 T10201046  RH  083%=      5-min Rain = 0
KBY1 131351Z 29008KT M02/M05 A2994 RMK A01 T10201046  RH  082%=      5-min Rain = 0
KBY1 131352Z 29007KT M02/M05 A2994 RMK A01 T10191046  RH  082%=      5-min Rain = 0
KBY1 131353Z 29007KT M02/M05 A2994 RMK A01 T10191046  RH  082%=      5-min Rain = 0
KBY1 131354Z 29007KT M02/M05 A2994 RMK A01 T10181046  RH  081%=      5-min Rain = 0
KBY1 131355Z 29007KT M02/M05 A2994 RMK A01 T10181046  RH  081%=      5-min Rain = 0
KBY1 131356Z 30009KT M02/M05 A2994 RMK A01 T10171045  RH  081%=      5-min Rain = 0
KBY1 131357Z 30009KT M02/M05 A2995 RMK A01 T10171045  RH  081%=      5-min Rain = 0
KBY1 131358Z 30008KT M02/M05 A2995 RMK A01 T10161046  RH  080%=      5-min Rain = 0
KBY1 131359Z 30008KT M02/M05 A2995 RMK A01 T10161046  RH  080%=      5-min Rain = 0
KBY1 131400Z 30009KT M02/M05 A2995 RMK A01 T10151045  RH  080%=      5-min Rain = 0
KBY1 131401Z 30008KT M01/M05 A2995 RMK A01 T10141045  RH  080%=      5-min Rain = 0
KBY1 131402Z 30008KT M01/M05 A2995 RMK A01 T10141045  RH  079%=      5-min Rain = 0
KBY1 131403Z 30008KT M01/M05 A2995 RMK A01 T10141045  RH  079%=      5-min Rain = 0
KBY1 131404Z 30010KT M01/M05 A2995 RMK A01 T10141045  RH  079%=      5-min Rain = 0
KBY1 131405Z 30009KT M01/M05 A2995 RMK A01 T10131045  RH  079%=      5-min Rain = 0
KBY1 131406Z 30009KT M01/M05 A2995 RMK A01 T10121045  RH  078%=      5-min Rain = 0
KBY1 131407Z 30009KT M01/M05 A2995 RMK A01 T10121045  RH  078%=      5-min Rain = 0
KBY1 131408Z 30010KT M01/M05 A2995 RMK A01 T10121046  RH  078%=      5-min Rain = 0
KBY1 131409Z 30009KT M01/M05 A2995 RMK A01 T10121045  RH  078%=      5-min Rain = 0
KBY1 131410Z 30009KT M01/M05 A2995 RMK A01 T10121045  RH  078%=      5-min Rain = 0
KBY1 131411Z 30009KT M01/M05 A2995 RMK A01 T10111045  RH  078%=      5-min Rain = 0
KBY1 131412Z 30009KT M01/M05 A2995 RMK A01 T10111045  RH  078%=      5-min Rain = 0
KBY1 131413Z 29009KT M01/M05 A2995 RMK A01 T10101045  RH  077%=      5-min Rain = 0
KBY1 131414Z 29007KT M01/M05 A2995 RMK A01 T10101045  RH  077%=      5-min Rain = 0
KBY1 131415Z 29007KT M01/M05 A2995 RMK A01 T10101045  RH  077%=      5-min Rain = 0
KBY1 131416Z 29007KT M01/M05 A2995 RMK A01 T10101045  RH  077%=      5-min Rain = 0
KBY1 131417Z 29007KT M01/M04 A2995 RMK A01 T10091044  RH  077%=      5-min Rain = 0
KBY1 131418Z 30007KT M01/M05 A2995 RMK A01 T10091045  RH  077%=      5-min Rain = 0
KBY1 131419Z 29007KT M01/M04 A2995 RMK A01 T10091044  RH  077%=      5-min Rain = 0
KBY1 131420Z 29008KT M01/M04 A2995 RMK A01 T10081044  RH  077%=      5-min Rain = 0
KBY1 131421Z 29008KT M01/M05 A2995 RMK A01 T10081045  RH  076%=      5-min Rain = 0
KBY1 131422Z 29008KT M01/M04 A2995 RMK A01 T10081044  RH  076%=      5-min Rain = 0
KBY1 131423Z 28007KT M01/M04 A2995 RMK A01 T10071044  RH  076%=      5-min Rain = 0
KBY1 131424Z 29007KT M01/M04 A2995 RMK A01 T10071044  RH  076%=      5-min Rain = 0
KBY1 131425Z 29006KT M01/M04 A2995 RMK A01 T10071044  RH  076%=      5-min Rain = 0
KBY1 131426Z 28008KT M01/M04 A2995 RMK A01 T10071044  RH  076%=      5-min Rain = 0
KBY1 131427Z 28006KT M01/M04 A2995 RMK A01 T10071044  RH  076%=      5-min Rain = 0
KBY1 131428Z 29007KT M01/M04 A2995 RMK A01 T10071044  RH  076%=      5-min Rain = 0
KBY1 131429Z 29007KT M01/M04 A2995 RMK A01 T10071044  RH  076%=      5-min Rain = 0
KBY1 131430Z 28007KT M01/M04 A2995 RMK A01 T10061044  RH  076%=      5-min Rain = 0
KBY1 131431Z 28007KT M01/M04 A2995 RMK A01 T10061043  RH  076%=      5-min Rain = 0
KBY1 131432Z 28006KT M01/M04 A2995 RMK A01 T10061043  RH  076%=      5-min Rain = 0
KBY1 131433Z 29006KT M01/M04 A2995 RMK A01 T10051043  RH  076%=      5-min Rain = 0
KBY1 131434Z 29007KT M01/M04 A2995 RMK A01 T10051043  RH  076%=      5-min Rain = 0
KBY1 131435Z 28007KT M00/M04 A2995 RMK A01 T10041042  RH  075%=      5-min Rain = 0
KBY1 131436Z 28007KT M00/M04 A2995 RMK A01 T10041042  RH  075%=      5-min Rain = 0
KBY1 131437Z 28007KT M00/M04 A2995 RMK A01 T10031042  RH  075%=      5-min Rain = 0
KBY1 131438Z 28007KT M00/M04 A2996 RMK A01 T10031042  RH  075%=      5-min Rain = 0
KBY1 131439Z 29008KT M00/M04 A2996 RMK A01 T10021041  RH  075%=      5-min Rain = 0
KBY1 131440Z 29007KT M00/M04 A2996 RMK A01 T10021041  RH  075%=      5-min Rain = 0
KBY1 131441Z 28007KT M00/M04 A2996 RMK A01 T10011041  RH  074%=      5-min Rain = 0
KBY1 131442Z 29007KT 00/04 A2996 RMK A01 T00-00-41  RH  074%=      5-min Rain = 0
KBY1 131443Z 28006KT 00/04 A2996 RMK A01 T00-00-41  RH  074%=      5-min Rain = 0
KBY1 131444Z 29007KT 00/M04 A2996 RMK A01 T00011040  RH  074%=      5-min Rain = 0
KBY1 131445Z 27004KT 00/M04 A2996 RMK A01 T00011040  RH  074%=      5-min Rain = 0
KBY1 131446Z 27005KT 00/M04 A2996 RMK A01 T00021039  RH  074%=      5-min Rain = 0
KBY1 131447Z 27006KT 00/M04 A2996 RMK A01 T00021039  RH  074%=      5-min Rain = 0
KBY1 131448Z 27006KT 00/M04 A2996 RMK A01 T00021039  RH  074%=      5-min Rain = 0
KBY1 131449Z 28005KT 00/M04 A2995 RMK A01 T00021040  RH  074%=      5-min Rain = 0
KBY1 131450Z 27005KT 00/M04 A2995 RMK A01 T00021039  RH  074%=      5-min Rain = 0
KBY1 131451Z 27006KT 00/M04 A2995 RMK A01 T00021039  RH  074%=      5-min Rain = 0
KBY1 131452Z 26007KT 00/M04 A2995 RMK A01 T00021039  RH  074%=      5-min Rain = 0
KBY1 131453Z 28005KT 00/M04 A2995 RMK A01 T00021038  RH  075%=      5-min Rain = 0
KBY1 131454Z 28005KT 00/M04 A2995 RMK A01 T00021038  RH  075%=      5-min Rain = 0
KBY1 131455Z 28005KT 00/M04 A2995 RMK A01 T00011038  RH  075%=      5-min Rain = 0
KBY1 131456Z 29005KT 00/M04 A2995 RMK A01 T00011039  RH  075%=      5-min Rain = 0
KBY1 131457Z 29006KT 00/M04 A2996 RMK A01 T00021038  RH  075%=      5-min Rain = 0
KBY1 131458Z 29006KT 00/M04 A2996 RMK A01 T00021038  RH  074%=      5-min Rain = 0
KBY1 131459Z 30005KT 00/M04 A2996 RMK A01 T00021038  RH  074%=      5-min Rain = 0
KBY1 131500Z 30005KT 00/M04 A2996 RMK A01 T00041037  RH  074%=      5-min Rain = 0
KBY1 131501Z 29005KT 01/M04 A2996 RMK A01 T00051036  RH  074%=      5-min Rain = 0
KBY1 131502Z 29004KT 01/M04 A2996 RMK A01 T00061035  RH  074%=      5-min Rain = 0
KBY1 131503Z 29004KT 01/M03 A2996 RMK A01 T00081033  RH  074%=      5-min Rain = 0
KBY1 131504Z 29006KT 01/M03 A2996 RMK A01 T00101032  RH  074%=      5-min Rain = 0
KBY1 131505Z 29006KT 01/M03 A2996 RMK A01 T00111033  RH  073%=      5-min Rain = 0
KBY1 131506Z 29005KT 01/M03 A2996 RMK A01 T00111032  RH  073%=      5-min Rain = 0
KBY1 131507Z 29005KT 01/M03 A2996 RMK A01 T00131032  RH  072%=      5-min Rain = 0
KBY1 131508Z 29005KT 01/M03 A2996 RMK A01 T00141032  RH  072%=      5-min Rain = 0
KBY1 131509Z 29005KT 01/M03 A2996 RMK A01 T00141032  RH  071%=      5-min Rain = 0
KBY1 131510Z 29007KT 02/M03 A2996 RMK A01 T00151032  RH  071%=      5-min Rain = 0
KBY1 131511Z 29007KT 02/M03 A2996 RMK A01 T00151033  RH  071%=      5-min Rain = 0
KBY1 131512Z 30006KT 01/M03 A2996 RMK A01 T00141033  RH  071%=      5-min Rain = 0
KBY1 131513Z 29005KT 02/M03 A2996 RMK A01 T00151031  RH  071%=      5-min Rain = 0
KBY1 131514Z 29005KT 02/M03 A2995 RMK A01 T00161030  RH  071%=      5-min Rain = 0
KBY1 131515Z 29007KT 02/M03 A2995 RMK A01 T00161031  RH  071%=      5-min Rain = 0
KBY1 131516Z 29006KT 02/M03 A2995 RMK A01 T00151033  RH  070%=      5-min Rain = 0
KBY1 131517Z 29006KT 02/M03 A2995 RMK A01 T00151033  RH  071%=      5-min Rain = 0
KBY1 131518Z 28004KT 01/M03 A2995 RMK A01 T00141032  RH  071%=      5-min Rain = 0
KBY1 131519Z 27005KT 02/M03 A2996 RMK A01 T00151030  RH  072%=      5-min Rain = 0
KBY1 131520Z 27006KT 02/M03 A2996 RMK A01 T00171029  RH  072%=      5-min Rain = 0
KBY1 131521Z 27006KT 02/M03 A2996 RMK A01 T00181030  RH  071%=      5-min Rain = 0
KBY1 131522Z 27006KT 02/M03 A2996 RMK A01 T00191029  RH  070%=      5-min Rain = 0
KBY1 131523Z 29005KT 02/M03 A2996 RMK A01 T00211028  RH  070%=      5-min Rain = 0
KBY1 131524Z 27004KT 02/M03 A2996 RMK A01 T00221028  RH  069%=      5-min Rain = 0
KBY1 131525Z 27006KT 02/M03 A2996 RMK A01 T00231027  RH  070%=      5-min Rain = 0
KBY1 131526Z 27006KT 02/M03 A2995 RMK A01 T00241027  RH  069%=      5-min Rain = 0
KBY1 131527Z 27006KT 03/M03 A2995 RMK A01 T00251027  RH  069%=      5-min Rain = 0
KBY1 131528Z 27007KT 03/M03 A2995 RMK A01 T00261026  RH  068%=      5-min Rain = 0
KBY1 131529Z 27008KT 03/M03 A2995 RMK A01 T00271027  RH  068%=      5-min Rain = 0
KBY1 131530Z 27007KT 03/M03 A2995 RMK A01 T00271028  RH  067%=      5-min Rain = 0
KBY1 131531Z 28006KT 03/M03 A2995 RMK A01 T00271027  RH  067%=      5-min Rain = 0
KBY1 131532Z 28006KT 03/M03 A2995 RMK A01 T00281026  RH  068%=      5-min Rain = 0
KBY1 131533Z 28007KT 03/M03 A2995 RMK A01 T00301025  RH  067%=      5-min Rain = 0
KBY1 131534Z 28008KT 03/M03 A2995 RMK A01 T00301027  RH  066%=      5-min Rain = 0
KBY1 131535Z 27007KT 03/M03 A2995 RMK A01 T00311026  RH  066%=      5-min Rain = 0
KBY1 131536Z 27008KT 03/M03 A2995 RMK A01 T00321025  RH  066%=      5-min Rain = 0
KBY1 131537Z 28007KT 03/M03 A2995 RMK A01 T00331025  RH  066%=      5-min Rain = 0
KBY1 131538Z 28007KT 04/M02 A2995 RMK A01 T00351023  RH  066%=      5-min Rain = 0
KBY1 131539Z 28006KT 04/M02 A2995 RMK A01 T00371022  RH  066%=      5-min Rain = 0
KBY1 131540Z 29008KT 04/M02 A2995 RMK A01 T00391021  RH  065%=      5-min Rain = 0
KBY1 131541Z 29009KT 04/M02 A2995 RMK A01 T00391024  RH  063%=      5-min Rain = 0
KBY1 131542Z 28009KT 04/M03 A2995 RMK A01 T00391025  RH  063%=      5-min Rain = 0
KBY1 131543Z 28008KT 04/M02 A2995 RMK A01 T00401024  RH  063%=      5-min Rain = 0
KBY1 131544Z 29009KT 04/M02 A2996 RMK A01 T00411024  RH  063%=      5-min Rain = 0
KBY1 131545Z 29010KT 04/M03 A2996 RMK A01 T00411025  RH  062%=      5-min Rain = 0
KBY1 131546Z 29010KT 04/M03 A2996 RMK A01 T00411026  RH  062%=      5-min Rain = 0
KBY1 131547Z 29011KT 04/M03 A2996 RMK A01 T00421025  RH  062%=      5-min Rain = 0
KBY1 131548Z 29010KT 04/M03 A2995 RMK A01 T00431025  RH  061%=      5-min Rain = 0
KBY1 131549Z 29009KT 04/M03 A2995 RMK A01 T00441025  RH  061%=      5-min Rain = 0
KBY1 131550Z 30007KT 05/M02 A2995 RMK A01 T00451024  RH  061%=      5-min Rain = 0
KBY1 131551Z 29008KT 05/M02 A2995 RMK A01 T00461024  RH  061%=      5-min Rain = 0
KBY1 131552Z 29008KT 05/M02 A2996 RMK A01 T00461024  RH  060%=      5-min Rain = 0
KBY1 131553Z 29008KT 05/M02 A2996 RMK A01 T00481022  RH  061%=      5-min Rain = 0
KBY1 131554Z 30008KT 05/M02 A2996 RMK A01 T00491022  RH  060%=      5-min Rain = 0
KBY1 131555Z 30007KT 05/M02 A2996 RMK A01 T00501021  RH  060%=      5-min Rain = 0
KBY1 131556Z 29008KT 05/M02 A2996 RMK A01 T00511020  RH  060%=      5-min Rain = 0
KBY1 131557Z 29008KT 05/M02 A2996 RMK A01 T00521020  RH  060%=      5-min Rain = 0
KBY1 131558Z 29008KT 05/M02 A2996 RMK A01 T00531019  RH  060%=      5-min Rain = 0
KBY1 131559Z 28006KT 05/M02 A2996 RMK A01 T00541018  RH  060%=      5-min Rain = 0
KBY1 131600Z 27007KT 06/M02 A2996 RMK A01 T00551018  RH  059%=      5-min Rain = 0
KBY1 131601Z 28007KT 06/M02 A2996 RMK A01 T00561017  RH  059%=      5-min Rain = 0
KBY1 131602Z 29007KT 06/M02 A2996 RMK A01 T00571018  RH  058%=      5-min Rain = 0
KBY1 131603Z 29006KT 06/M02 A2995 RMK A01 T00571018  RH  058%=      5-min Rain = 0
KBY1 131604Z 27006KT 06/M02 A2995 RMK A01 T00581016  RH  059%=      5-min Rain = 0
KBY1 131605Z 27008KT 06/M01 A2995 RMK A01 T00601014  RH  059%=      5-min Rain = 0
KBY1 131606Z 26008KT 06/M02 A2995 RMK A01 T00621016  RH  058%=      5-min Rain = 0
KBY1 131607Z 27007KT 06/M02 A2995 RMK A01 T00621016  RH  057%=      5-min Rain = 0
KBY1 131608Z 27007KT 06/M02 A2995 RMK A01 T00631015  RH  058%=      5-min Rain = 0
KBY1 131609Z 27008KT 06/M02 A2995 RMK A01 T00641016  RH  057%=      5-min Rain = 0
KBY1 131610Z 27006KT 07/M02 A2995 RMK A01 T00651015  RH  056%=      5-min Rain = 0
KBY1 131611Z 26007KT 07/M01 A2995 RMK A01 T00671014  RH  056%=      5-min Rain = 0
KBY1 131612Z 26007KT 07/M01 A2995 RMK A01 T00691014  RH  056%=      5-min Rain = 0
KBY1 131613Z 27007KT 07/M02 A2995 RMK A01 T00701015  RH  055%=      5-min Rain = 0
KBY1 131614Z 26007KT 07/M02 A2996 RMK A01 T00691015  RH  055%=      5-min Rain = 0
KBY1 131615Z 27006KT 07/M01 A2996 RMK A01 T00701014  RH  055%=      5-min Rain = 0
KBY1 131616Z 27006KT 07/M02 A2996 RMK A01 T00711015  RH  054%=      5-min Rain = 0
KBY1 131617Z 26006KT 07/M02 A2996 RMK A01 T00711015  RH  054%=      5-min Rain = 0
KBY1 131618Z 27007KT 07/M01 A2996 RMK A01 T00721013  RH  055%=      5-min Rain = 0
KBY1 131619Z 27006KT 08/M01 A2996 RMK A01 T00751012  RH  054%=      5-min Rain = 0
KBY1 131620Z 27006KT 08/M01 A2996 RMK A01 T00771011  RH  054%=      5-min Rain = 0
KBY1 131621Z 27006KT 08/M01 A2996 RMK A01 T00781011  RH  053%=      5-min Rain = 0
KBY1 131622Z 27010KT 08/M01 A2995 RMK A01 T00801012  RH  052%=      5-min Rain = 0
KBY1 131623Z 27009KT 08/M02 A2996 RMK A01 T00801015  RH  051%=      5-min Rain = 0
KBY1 131624Z 26008KT 08/M01 A2996 RMK A01 T00801014  RH  051%=      5-min Rain = 0
KBY1 131625Z 27010KT 08/M01 A2996 RMK A01 T00821013  RH  051%=      5-min Rain = 0
KBY1 131626Z 26008KT 08/M01 A2996 RMK A01 T00831012  RH  051%=      5-min Rain = 0
KBY1 131627Z 27007KT 09/M01 A2996 RMK A01 T00861010  RH  051%=      5-min Rain = 0
KBY1 131628Z 28009KT 09/M01 A2995 RMK A01 T00881011  RH  050%=      5-min Rain = 0
KBY1 131629Z 27008KT 09/M01 A2995 RMK A01 T00881014  RH  049%=      5-min Rain = 0
KBY1 131630Z 26006KT 09/M01 A2995 RMK A01 T00891012  RH  049%=      5-min Rain = 0
KBY1 131631Z 26011KT 09/M01 A2996 RMK A01 T00911012  RH  048%=      5-min Rain = 0
KBY1 131632Z 27009KT 09/M02 A2996 RMK A01 T00911015  RH  047%=      5-min Rain = 0
KBY1 131633Z 27007KT 09/M02 A2996 RMK A01 T00911015  RH  048%=      5-min Rain = 0
KBY1 131634Z 29006KT 09/M01 A2996 RMK A01 T00911014  RH  048%=      5-min Rain = 0
KBY1 131635Z 28008KT 09/M01 A2996 RMK A01 T00921014  RH  048%=      5-min Rain = 0
KBY1 131636Z 29008KT 09/M01 A2995 RMK A01 T00931014  RH  047%=      5-min Rain = 0
KBY1 131637Z 30008KT 09/M01 A2995 RMK A01 T00931014  RH  047%=      5-min Rain = 0
KBY1 131638Z 30009KT 09/M01 A2995 RMK A01 T00931014  RH  047%=      5-min Rain = 0
KBY1 131639Z 29007KT 09/M01 A2996 RMK A01 T00941014  RH  047%=      5-min Rain = 0
KBY1 131640Z 30006KT 10/M01 A2996 RMK A01 T00951013  RH  047%=      5-min Rain = 0
KBY1 131641Z 29006KT 10/M01 A2996 RMK A01 T00971012  RH  047%=      5-min Rain = 0
KBY1 131642Z 29006KT 10/M01 A2996 RMK A01 T00981013  RH  046%=      5-min Rain = 0
KBY1 131643Z 31007KT 10/M01 A2996 RMK A01 T00981013  RH  046%=      5-min Rain = 0
KBY1 131644Z 30006KT 10/M01 A2995 RMK A01 T00991013  RH  046%=      5-min Rain = 0
KBY1 131645Z 29007KT 10/M01 A2995 RMK A01 T01021012  RH  045%=      5-min Rain = 0
KBY1 131646Z 29008KT 10/M01 A2995 RMK A01 T01021013  RH  045%=      5-min Rain = 0
KBY1 131647Z 30007KT 10/M02 A2995 RMK A01 T01021016  RH  044%=      5-min Rain = 0
KBY1 131648Z 30008KT 10/M02 A2995 RMK A01 T01011015  RH  044%=      5-min Rain = 0
KBY1 131649Z 30006KT 10/M02 A2996 RMK A01 T01011015  RH  044%=      5-min Rain = 0
KBY1 131650Z 30006KT 10/M01 A2996 RMK A01 T01021014  RH  044%=      5-min Rain = 0
KBY1 131651Z 29006KT 10/M01 A2995 RMK A01 T01041012  RH  044%=      5-min Rain = 0
KBY1 131652Z 28006KT 11/M01 A2995 RMK A01 T01051013  RH  044%=      5-min Rain = 0
KBY1 131653Z 28005KT 11/M01 A2995 RMK A01 T01051014  RH  044%=      5-min Rain = 0
KBY1 131654Z 31009KT 11/M01 A2995 RMK A01 T01071013  RH  043%=      5-min Rain = 0
KBY1 131655Z 30007KT 11/M02 A2995 RMK A01 T01081015  RH  042%=      5-min Rain = 0
KBY1 131656Z 28006KT 11/M01 A2995 RMK A01 T01081014  RH  042%=      5-min Rain = 0
KBY1 131657Z 27008KT 11/M01 A2995 RMK A01 T01091013  RH  042%=      5-min Rain = 0
KBY1 131658Z 27009KT 11/M01 A2995 RMK A01 T01091013  RH  043%=      5-min Rain = 0
KBY1 131659Z 28008KT 11/M01 A2994 RMK A01 T01101013  RH  043%=      5-min Rain = 0
KBY1 131700Z 28007KT 11/M01 A2994 RMK A01 T01101014  RH  042%=      5-min Rain = 0
KBY1 131701Z 26007KT 11/M01 A2994 RMK A01 T01111011  RH  043%=      5-min Rain = 0
KBY1 131702Z 26007KT 11/M01 A2994 RMK A01 T01131011  RH  042%=      5-min Rain = 0
KBY1 131703Z 28007KT 12/M01 A2994 RMK A01 T01151012  RH  041%=      5-min Rain = 0
KBY1 131704Z 28007KT 12/M01 A2994 RMK A01 T01151013  RH  041%=      5-min Rain = 0
KBY1 131705Z 26008KT 12/M01 A2994 RMK A01 T01151014  RH  041%=      5-min Rain = 0
KBY1 131706Z 27010KT 11/M01 A2994 RMK A01 T01141012  RH  041%=      5-min Rain = 0
KBY1 131707Z 27008KT 11/M01 A2994 RMK A01 T01141013  RH  041%=      5-min Rain = 0
KBY1 131708Z 27009KT 12/M01 A2994 RMK A01 T01151011  RH  042%=      5-min Rain = 0
KBY1 131709Z 26009KT 12/M01 A2994 RMK A01 T01161012  RH  041%=      5-min Rain = 0
KBY1 131710Z 27010KT 12/M01 A2994 RMK A01 T01161011  RH  041%=      5-min Rain = 0
KBY1 131711Z 27009KT 12/M01 A2994 RMK A01 T01161012  RH  041%=      5-min Rain = 0
KBY1 131712Z 27006KT 12/M01 A2994 RMK A01 T01171012  RH  041%=      5-min Rain = 0
KBY1 131713Z 27008KT 12/M01 A2994 RMK A01 T01181010  RH  041%=      5-min Rain = 0
KBY1 131714Z 28008KT 12/M01 A2994 RMK A01 T01191011  RH  040%=      5-min Rain = 0
KBY1 131715Z 27007KT 12/M01 A2994 RMK A01 T01191011  RH  041%=      5-min Rain = 0
KBY1 131716Z 28003KT 12/M01 A2995 RMK A01 T01201010  RH  041%=      5-min Rain = 0
KBY1 131717Z 26006KT 12/M01 A2995 RMK A01 T01221008  RH  041%=      5-min Rain = 0
KBY1 131718Z 27006KT 12/M01 A2995 RMK A01 T01221010  RH  040%=      5-min Rain = 0
KBY1 131719Z 27007KT 12/M01 A2995 RMK A01 T01211010  RH  040%=      5-min Rain = 0
KBY1 131720Z 26005KT 12/M01 A2995 RMK A01 T01201010  RH  041%=      5-min Rain = 0
KBY1 131721Z 27006KT 12/M01 A2995 RMK A01 T01221008  RH  041%=      5-min Rain = 0
KBY1 131722Z 27006KT 12/M01 A2995 RMK A01 T01231008  RH  040%=      5-min Rain = 0
KBY1 131723Z 27006KT 12/M01 A2995 RMK A01 T01231009  RH  040%=      5-min Rain = 0
KBY1 131724Z 26007KT 12/M01 A2995 RMK A01 T01231009  RH  040%=      5-min Rain = 0
KBY1 131725Z 26006KT 12/M01 A2995 RMK A01 T01231010  RH  040%=      5-min Rain = 0
KBY1 131726Z 27006KT 12/M01 A2994 RMK A01 T01231009  RH  040%=      5-min Rain = 0
KBY1 131727Z 28007KT 13/M01 A2994 RMK A01 T01261010  RH  039%=      5-min Rain = 0
KBY1 131728Z 28005KT 13/M01 A2994 RMK A01 T01261011  RH  039%=      5-min Rain = 0
KBY1 131729Z 27003KT 13/M01 A2995 RMK A01 T01271008  RH  039%=      5-min Rain = 0
KBY1 131730Z 27004KT 13/M01 A2994 RMK A01 T01291007  RH  039%=      5-min Rain = 0
KBY1 131731Z 27002KT 13/M01 A2994 RMK A01 T01291008  RH  039%=      5-min Rain = 0
KBY1 131732Z 26007KT 13/M01 A2994 RMK A01 T01311009  RH  038%=      5-min Rain = 0
KBY1 131733Z 27006KT 13/M01 A2994 RMK A01 T01311009  RH  038%=      5-min Rain = 0
KBY1 131734Z 27005KT 13/M01 A2994 RMK A01 T01301009  RH  038%=      5-min Rain = 0
KBY1 131735Z 26006KT 13/M01 A2994 RMK A01 T01321007  RH  038%=      5-min Rain = 0
KBY1 131736Z 27008KT 13/M01 A2994 RMK A01 T01341009  RH  037%=      5-min Rain = 0
KBY1 131737Z 27008KT 14/M01 A2994 RMK A01 T01351010  RH  037%=      5-min Rain = 0
KBY1 131738Z 26008KT 14/M01 A2993 RMK A01 T01361010  RH  037%=      5-min Rain = 0
KBY1 131739Z 27007KT 14/M01 A2993 RMK A01 T01361010  RH  036%=      5-min Rain = 0
KBY1 131740Z 27008KT 14/M01 A2993 RMK A01 T01361011  RH  036%=      5-min Rain = 0
KBY1 131741Z 27007KT 14/M01 A2993 RMK A01 T01351012  RH  036%=      5-min Rain = 0
KBY1 131742Z 28006KT 14/M01 A2993 RMK A01 T01351012  RH  036%=      5-min Rain = 0
KBY1 131743Z 27005G10KT 14/M01 A2993 RMK A01 T01351012  RH  036%=      5-min Rain = 0
KBY1 131744Z 27008KT 14/M01 A2993 RMK A01 T01361012  RH  036%=      5-min Rain = 0
KBY1 131745Z 27008KT 14/M01 A2993 RMK A01 T01361013  RH  036%=      5-min Rain = 0
KBY1 131746Z 27007KT 14/M01 A2993 RMK A01 T01351013  RH  036%=      5-min Rain = 0
KBY1 131747Z 26008KT 14/M01 A2993 RMK A01 T01351013  RH  036%=      5-min Rain = 0
KBY1 131748Z 25007KT 14/M01 A2993 RMK A01 T01361014  RH  035%=      5-min Rain = 0
KBY1 131749Z 27007KT 14/M01 A2993 RMK A01 T01361014  RH  035%=      5-min Rain = 0
KBY1 131750Z 27009KT 14/M01 A2993 RMK A01 T01381012  RH  036%=      5-min Rain = 0
KBY1 131751Z 27007KT 14/M01 A2993 RMK A01 T01391012  RH  035%=      5-min Rain = 0
KBY1 131752Z 27005KT 14/M01 A2993 RMK A01 T01391014  RH  035%=      5-min Rain = 0
KBY1 131753Z 26007G12KT 14/M01 A2993 RMK A01 T01391014  RH  035%=      5-min Rain = 0
KBY1 131754Z 27009KT 14/M01 A2993 RMK A01 T01401013  RH  035%=      5-min Rain = 0
KBY1 131755Z 26008KT 14/M01 A2993 RMK A01 T01401013  RH  035%=      5-min Rain = 0
KBY1 131756Z 26007KT 14/M02 A2993 RMK A01 T01391015  RH  035%=      5-min Rain = 0
KBY1 131757Z 27005KT 14/M01 A2993 RMK A01 T01391013  RH  035%=      5-min Rain = 0
KBY1 131758Z 26006KT 14/M01 A2992 RMK A01 T01401013  RH  035%=      5-min Rain = 0
KBY1 131759Z 29006KT 14/M01 A2992 RMK A01 T01421012  RH  035%=      5-min Rain = 0
KBY1 131800Z 28005KT 14/M01 A2992 RMK A01 T01441013  RH  034%=      5-min Rain = 0
KBY1 131801Z 25006KT 14/M01 A2992 RMK A01 T01441013  RH  034%=      5-min Rain = 0
KBY1 131802Z 24006KT 14/M01 A2992 RMK A01 T01431014  RH  034%=      5-min Rain = 0
KBY1 131803Z 26004KT 14/M01 A2992 RMK A01 T01421014  RH  034%=      5-min Rain = 0
KBY1 131804Z 26006KT 14/M01 A2992 RMK A01 T01431012  RH  034%=      5-min Rain = 0
KBY1 131805Z 25006KT 15/M01 A2992 RMK A01 T01451012  RH  034%=      5-min Rain = 0
KBY1 131806Z 25006KT 15/M01 A2992 RMK A01 T01471011  RH  034%=      5-min Rain = 0
KBY1 131807Z 24008KT 15/M01 A2992 RMK A01 T01501010  RH  033%=      5-min Rain = 0
KBY1 131808Z 26008KT 15/M01 A2991 RMK A01 T01501012  RH  033%=      5-min Rain = 0
KBY1 131809Z 26007KT 15/M01 A2991 RMK A01 T01481014  RH  033%=      5-min Rain = 0
KBY1 131810Z 24007KT 15/M01 A2991 RMK A01 T01471013  RH  033%=      5-min Rain = 0
KBY1 131811Z 24008KT 15/M01 A2991 RMK A01 T01481013  RH  033%=      5-min Rain = 0
KBY1 131812Z 25006KT 15/M01 A2991 RMK A01 T01491014  RH  033%=      5-min Rain = 0
KBY1 131813Z 24006KT 15/M01 A2991 RMK A01 T01491012  RH  033%=      5-min Rain = 0
KBY1 131814Z 26006KT 15/M01 A2991 RMK A01 T01511010  RH  033%=      5-min Rain = 0
KBY1 131815Z 24007KT 16/M01 A2991 RMK A01 T01551009  RH  033%=      5-min Rain = 0
KBY1 131816Z 25007KT 16/M01 A2991 RMK A01 T01561012  RH  032%=      5-min Rain = 0
KBY1 131817Z 25007KT 16/M01 A2991 RMK A01 T01561012  RH  032%=      5-min Rain = 0
KBY1 131818Z 25008KT 16/M01 A2991 RMK A01 T01561013  RH  032%=      5-min Rain = 0
KBY1 131819Z 24006KT 16/M01 A2991 RMK A01 T01561012  RH  032%=      5-min Rain = 0
KBY1 131820Z 25005KT 16/M01 A2991 RMK A01 T01571010  RH  032%=      5-min Rain = 0
KBY1 131821Z 25004KT 16/M01 A299 RMK A01 T01581012  RH  031%=      5-min Rain = 0
KBY1 131822Z 25005KT 16/M01 A299 RMK A01 T01601012  RH  031%=      5-min Rain = 0
KBY1 131823Z 26007KT 16/M01 A299 RMK A01 T01611012  RH  031%=      5-min Rain = 0
KBY1 131824Z 25006KT 16/M01 A299 RMK A01 T01621012  RH  030%=      5-min Rain = 0
KBY1 131825Z 26007KT 16/M01 A2991 RMK A01 T01611012  RH  031%=      5-min Rain = 0
KBY1 131826Z 27007KT 16/M01 A2991 RMK A01 T01611013  RH  030%=      5-min Rain = 0
KBY1 131827Z 27006KT 16/M01 A2991 RMK A01 T01611014  RH  030%=      5-min Rain = 0
KBY1 131828Z 25007KT 16/M02 A299 RMK A01 T01611015  RH  030%=      5-min Rain = 0
KBY1 131829Z 25008KT 16/M02 A299 RMK A01 T01611016  RH  030%=      5-min Rain = 0
KBY1 131830Z 26007KT 16/M02 A299 RMK A01 T01611015  RH  030%=      5-min Rain = 0
KBY1 131831Z 26007KT 16/M01 A299 RMK A01 T01631013  RH  030%=      5-min Rain = 0
KBY1 131832Z 27007KT 17/M01 A299 RMK A01 T01661013  RH  029%=      5-min Rain = 0
KBY1 131833Z 29006KT 17/M01 A299 RMK A01 T01671014  RH  029%=      5-min Rain = 0
KBY1 131834Z 27006KT 17/M02 A299 RMK A01 T01671018  RH  028%=      5-min Rain = 0
KBY1 131835Z 27004KT 17/M02 A299 RMK A01 T01651019  RH  028%=      5-min Rain = 0
KBY1 131836Z 29004KT 17/M02 A299 RMK A01 T01651018  RH  029%=      5-min Rain = 0
KBY1 131837Z 32003KT 17/M02 A299 RMK A01 T01661018  RH  028%=      5-min Rain = 0
KBY1 131838Z 30006KT 17/M02 A299 RMK A01 T01661020  RH  028%=      5-min Rain = 0
KBY1 131839Z 27005KT 17/M02 A299 RMK A01 T01661018  RH  028%=      5-min Rain = 0
KBY1 131840Z 27005KT 17/M02 A299 RMK A01 T01651018  RH  029%=      5-min Rain = 0
KBY1 131841Z 27005KT 17/M02 A299 RMK A01 T01651019  RH  028%=      5-min Rain = 0
KBY1 131842Z 26006KT 17/M02 A299 RMK A01 T01651018  RH  028%=      5-min Rain = 0
KBY1 131843Z 28005KT 17/M02 A299 RMK A01 T01651018  RH  029%=      5-min Rain = 0
KBY1 131844Z 27005KT 17/M02 A299 RMK A01 T01651017  RH  029%=      5-min Rain = 0
KBY1 131845Z 27006KT 17/M02 A2989 RMK A01 T01661017  RH  028%=      5-min Rain = 0
KBY1 131846Z 25004KT 17/M02 A2989 RMK A01 T01671019  RH  028%=      5-min Rain = 0
KBY1 131847Z 27005KT 17/M02 A2989 RMK A01 T01671016  RH  029%=      5-min Rain = 0
KBY1 131848Z 29005KT 17/M02 A2989 RMK A01 T01681017  RH  028%=      5-min Rain = 0
KBY1 131849Z 30005KT 17/M02 A2989 RMK A01 T01681019  RH  028%=      5-min Rain = 0
KBY1 131850Z 28004KT 17/M02 A2989 RMK A01 T01681018  RH  028%=      5-min Rain = 0
KBY1 131851Z 32002KT 17/M02 A2989 RMK A01 T01691019  RH  028%=      5-min Rain = 0
KBY1 131852Z 27003KT 17/M02 A2989 RMK A01 T01681020  RH  028%=      5-min Rain = 0
KBY1 131853Z 29004KT 17/M02 A2989 RMK A01 T01691017  RH  028%=      5-min Rain = 0
KBY1 131854Z 32003KT 17/M02 A2989 RMK A01 T01691019  RH  028%=      5-min Rain = 0
KBY1 131855Z 26005KT 17/M02 A2989 RMK A01 T01701018  RH  028%=      5-min Rain = 0
KBY1 131856Z 25003KT 17/M02 A2989 RMK A01 T01701020  RH  027%=      5-min Rain = 0
KBY1 131857Z 24002KT 17/M02 A2989 RMK A01 T01691020  RH  027%=      5-min Rain = 0
KBY1 131858Z 23002KT 17/M02 A2988 RMK A01 T01701017  RH  028%=      5-min Rain = 0
KBY1 131859Z 23005KT 17/M02 A2988 RMK A01 T01731015  RH  028%=      5-min Rain = 0
KBY1 131900Z 23005KT 17/M02 A2988 RMK A01 T01731019  RH  027%=      5-min Rain = 0
KBY1 131901Z 22004KT 17/M02 A2988 RMK A01 T01721017  RH  028%=      5-min Rain = 0
KBY1 131902Z 23005KT 17/M01 A2988 RMK A01 T01741014  RH  028%=      5-min Rain = 0
KBY1 131903Z 25007KT 18/M02 A2988 RMK A01 T01751017  RH  027%=      5-min Rain = 0
KBY1 131904Z 28005KT 18/M02 A2988 RMK A01 T01751019  RH  026%=      5-min Rain = 0
KBY1 131905Z 34004KT 18/M02 A2988 RMK A01 T01761021  RH  026%=      5-min Rain = 0
KBY1 131906Z 00005KT 18/M02 A2988 RMK A01 T01771023  RH  026%=      5-min Rain = 0
KBY1 131907Z 34002KT 18/M03 A2988 RMK A01 T01761026  RH  025%=      5-min Rain = 0
KBY1 131908Z 33004KT 18/M02 A2988 RMK A01 T01751023  RH  026%=      5-min Rain = 0
KBY1 131909Z 34006KT 18/M02 A2988 RMK A01 T01751023  RH  026%=      5-min Rain = 0
KBY1 131910Z 34004KT 18/M02 A2988 RMK A01 T01761023  RH  026%=      5-min Rain = 0
KBY1 131911Z 33007KT 18/M02 A2988 RMK A01 T01801024  RH  025%=      5-min Rain = 0
KBY1 131912Z 35009KT 18/M03 A2988 RMK A01 T01821029  RH  024%=      5-min Rain = 0
KBY1 131913Z 00006KT 18/M03 A2988 RMK A01 T01801030  RH  024%=      5-min Rain = 0
KBY1 131914Z 34005KT 18/M03 A2988 RMK A01 T01801028  RH  024%=      5-min Rain = 0
KBY1 131915Z 00004KT 18/M03 A2988 RMK A01 T01811027  RH  024%=      5-min Rain = 0
KBY1 131916Z 01002KT 18/M03 A2987 RMK A01 T01811029  RH  024%=      5-min Rain = 0
KBY1 131917Z 33003KT 18/M03 A2987 RMK A01 T01801028  RH  024%=      5-min Rain = 0
KBY1 131918Z 28006KT 18/M03 A2987 RMK A01 T01811027  RH  024%=      5-min Rain = 0
KBY1 131919Z 30005KT 18/M03 A2987 RMK A01 T01811029  RH  024%=      5-min Rain = 0
KBY1 131920Z 29004KT 18/M03 A2987 RMK A01 T01791029  RH  024%=      5-min Rain = 0
KBY1 131921Z 29005KT 18/M03 A2987 RMK A01 T01791029  RH  024%=      5-min Rain = 0
KBY1 131922Z 27004KT 18/M03 A2987 RMK A01 T01801028  RH  024%=      5-min Rain = 0
KBY1 131923Z 28004KT 18/M03 A2987 RMK A01 T01811027  RH  024%=      5-min Rain = 0
KBY1 131924Z 29004KT 18/M03 A2987 RMK A01 T01821026  RH  024%=      5-min Rain = 0
KBY1 131925Z 32003KT 18/M03 A2987 RMK A01 T01841025  RH  024%=      5-min Rain = 0
KBY1 131926Z 30003KT 19/M03 A2987 RMK A01 T01851025  RH  024%=      5-min Rain = 0
KBY1 131927Z 29005KT 19/M03 A2987 RMK A01 T01861025  RH  024%=      5-min Rain = 0
KBY1 131928Z 29004KT 19/M03 A2987 RMK A01 T01851027  RH  024%=      5-min Rain = 0
KBY1 131929Z 30003KT 18/M03 A2987 RMK A01 T01831029  RH  024%=      5-min Rain = 0
KBY1 131930Z 28003KT 18/M03 A2986 RMK A01 T01821030  RH  023%=      5-min Rain = 0
KBY1 131931Z 28004KT 18/M03 A2986 RMK A01 T01831031  RH  023%=      5-min Rain = 0
KBY1 131932Z 27006KT 18/M03 A2986 RMK A01 T01831033  RH  023%=      5-min Rain = 0
KBY1 131933Z 30007KT 18/M03 A2986 RMK A01 T01831032  RH  023%=      5-min Rain = 0
KBY1 131934Z 33007KT 18/M03 A2986 RMK A01 T01831034  RH  023%=      5-min Rain = 0
KBY1 131935Z 36006KT 18/M04 A2986 RMK A01 T01831035  RH  023%=      5-min Rain = 0
KBY1 131936Z 00005KT 18/M03 A2986 RMK A01 T01831033  RH  023%=      5-min Rain = 0
KBY1 131937Z 33007KT 18/M03 A2986 RMK A01 T01831033  RH  023%=      5-min Rain = 0
KBY1 131938Z 33006KT 18/M03 A2986 RMK A01 T01831031  RH  023%=      5-min Rain = 0
KBY1 131939Z 00003KT 19/M03 A2986 RMK A01 T01851030  RH  023%=      5-min Rain = 0
KBY1 131940Z 35004KT 19/M03 A2986 RMK A01 T01871030  RH  023%=      5-min Rain = 0
KBY1 131941Z 35005KT 19/M03 A2986 RMK A01 T01871031  RH  022%=      5-min Rain = 0
KBY1 131942Z 36006KT 19/M03 A2986 RMK A01 T01881033  RH  022%=      5-min Rain = 0
KBY1 131943Z 35007KT 19/M03 A2986 RMK A01 T01871033  RH  022%=      5-min Rain = 0
KBY1 131944Z 33009KT 19/M03 A2986 RMK A01 T01851033  RH  022%=      5-min Rain = 0
KBY1 131945Z 33008KT 19/M03 A2986 RMK A01 T01851032  RH  023%=      5-min Rain = 0
KBY1 131946Z 34008KT 19/M03 A2986 RMK A01 T01861030  RH  023%=      5-min Rain = 0
KBY1 131947Z 34005KT 19/M03 A2986 RMK A01 T01871032  RH  022%=      5-min Rain = 0
KBY1 131948Z 33007KT 19/M03 A2986 RMK A01 T01861033  RH  022%=      5-min Rain = 0
KBY1 131949Z 32006KT 19/M03 A2986 RMK A01 T01851033  RH  023%=      5-min Rain = 0
KBY1 131950Z 32006KT 19/M03 A2986 RMK A01 T01851032  RH  023%=      5-min Rain = 0
KBY1 131951Z 33003KT 19/M03 A2986 RMK A01 T01851034  RH  022%=      5-min Rain = 0
KBY1 131952Z 31003KT 18/M03 A2986 RMK A01 T01841034  RH  022%=      5-min Rain = 0
KBY1 131953Z 31005KT 18/M03 A2986 RMK A01 T01841034  RH  022%=      5-min Rain = 0
KBY1 131954Z 35006KT 19/M03 A2986 RMK A01 T01851032  RH  023%=      5-min Rain = 0
KBY1 131955Z 34004KT 19/M03 A2985 RMK A01 T01851033  RH  023%=      5-min Rain = 0
KBY1 131956Z 34005KT 19/M03 A2985 RMK A01 T01861030  RH  023%=      5-min Rain = 0
KBY1 131957Z 01005KT 19/M03 A2985 RMK A01 T01881030  RH  023%=      5-min Rain = 0
KBY1 131958Z 02007KT 19/M03 A2985 RMK A01 T01881031  RH  022%=      5-min Rain = 0
KBY1 131959Z 03007KT 19/M03 A2985 RMK A01 T01881032  RH  022%=      5-min Rain = 0
KBY1 132000Z 03005KT 19/M03 A2985 RMK A01 T01861034  RH  022%=      5-min Rain = 0
KBY1 132001Z 01006KT 19/M03 A2985 RMK A01 T01851032  RH  023%=      5-min Rain = 0
KBY1 132002Z 36005KT 19/M03 A2985 RMK A01 T01851034  RH  022%=      5-min Rain = 0
KBY1 132003Z 02006KT 19/M03 A2985 RMK A01 T01851032  RH  023%=      5-min Rain = 0
KBY1 132004Z 01004KT 19/M03 A2985 RMK A01 T01861031  RH  023%=      5-min Rain = 0
KBY1 132005Z 33005KT 19/M03 A2985 RMK A01 T01871031  RH  023%=      5-min Rain = 0
KBY1 132006Z 33004KT 19/M03 A2985 RMK A01 T01891031  RH  022%=      5-min Rain = 0
KBY1 132007Z 02003KT 19/M03 A2985 RMK A01 T01881031  RH  022%=      5-min Rain = 0
KBY1 132008Z 03007KT 19/M03 A2985 RMK A01 T01891030  RH  022%=      5-min Rain = 0
KBY1 132009Z 02006KT 19/M03 A2985 RMK A01 T01891032  RH  022%=      5-min Rain = 0
KBY1 132010Z 03004KT 19/M03 A2985 RMK A01 T01881030  RH  023%=      5-min Rain = 0
KBY1 132011Z 03004KT 19/M03 A2984 RMK A01 T01881032  RH  022%=      5-min Rain = 0
KBY1 132012Z 04002KT 19/M03 A2984 RMK A01 T01871033  RH  022%=      5-min Rain = 0
KBY1 132013Z 05001KT 19/M03 A2984 RMK A01 T01871031  RH  023%=      5-min Rain = 0
KBY1 132014Z 06002KT 19/M03 A2984 RMK A01 T01871031  RH  022%=      5-min Rain = 0
KBY1 132015Z 01003KT 19/M03 A2984 RMK A01 T01881032  RH  022%=      5-min Rain = 0
KBY1 132016Z 00004KT 19/M03 A2984 RMK A01 T01881033  RH  022%=      5-min Rain = 0
KBY1 132017Z 36006KT 19/M03 A2984 RMK A01 T01871031  RH  023%=      5-min Rain = 0
KBY1 132018Z 33007KT 19/M03 A2984 RMK A01 T01881030  RH  023%=      5-min Rain = 0
KBY1 132019Z 34007KT 19/M03 A2985 RMK A01 T01891030  RH  023%=      5-min Rain = 0
KBY1 132020Z 34006KT 19/M03 A2985 RMK A01 T01901029  RH  023%=      5-min Rain = 0
KBY1 132021Z 33006KT 19/M03 A2985 RMK A01 T01901031  RH  022%=      5-min Rain = 0
KBY1 132022Z 33004KT 19/M03 A2985 RMK A01 T01881032  RH  022%=      5-min Rain = 0
KBY1 132023Z 36005KT 19/M03 A2985 RMK A01 T01881032  RH  022%=      5-min Rain = 0
KBY1 132024Z 34004KT 19/M03 A2984 RMK A01 T01881032  RH  022%=      5-min Rain = 0
KBY1 132025Z 33005KT 19/M03 A2984 RMK A01 T01891029  RH  023%=      5-min Rain = 0
KBY1 132026Z 33005KT 19/M03 A2984 RMK A01 T01911030  RH  022%=      5-min Rain = 0
KBY1 132027Z 35005KT 19/M03 A2984 RMK A01 T01901032  RH  022%=      5-min Rain = 0
KBY1 132028Z 00004KT 19/M03 A2984 RMK A01 T01881033  RH  022%=      5-min Rain = 0
KBY1 132029Z 35004KT 19/M03 A2984 RMK A01 T01881031  RH  023%=      5-min Rain = 0
KBY1 132030Z 34004KT 19/M03 A2984 RMK A01 T01891031  RH  022%=      5-min Rain = 0
KBY1 132031Z 32005KT 19/M03 A2984 RMK A01 T01891032  RH  022%=      5-min Rain = 0
KBY1 132032Z 34005KT 19/M03 A2984 RMK A01 T01891031  RH  022%=      5-min Rain = 0
KBY1 132033Z 33004KT 19/M03 A2984 RMK A01 T01881032  RH  022%=      5-min Rain = 0
KBY1 132034Z 32003KT 19/M03 A2984 RMK A01 T01881033  RH  022%=      5-min Rain = 0
KBY1 132035Z 32003KT 19/M03 A2984 RMK A01 T01881032  RH  022%=      5-min Rain = 0
KBY1 132036Z 33005KT 19/M03 A2984 RMK A01 T01891031  RH  022%=      5-min Rain = 0
KBY1 132037Z 34004KT 19/M03 A2984 RMK A01 T01891032  RH  022%=      5-min Rain = 0
KBY1 132038Z 01005KT 19/M03 A2984 RMK A01 T01891033  RH  022%=      5-min Rain = 0
KBY1 132039Z 35004KT 19/M03 A2985 RMK A01 T01881032  RH  022%=      5-min Rain = 0
KBY1 132040Z 02005KT 19/M03 A2984 RMK A01 T01881031  RH  022%=      5-min Rain = 0
KBY1 132041Z 02005KT 19/M03 A2984 RMK A01 T01881032  RH  022%=      5-min Rain = 0
KBY1 132042Z 34006KT 19/M03 A2984 RMK A01 T01871032  RH  022%=      5-min Rain = 0
KBY1 132043Z 31005KT 19/M03 A2984 RMK A01 T01881030  RH  023%=      5-min Rain = 0
KBY1 132044Z 30004KT 19/M03 A2984 RMK A01 T01881032  RH  022%=      5-min Rain = 0
KBY1 132045Z 32004KT 19/M03 A2984 RMK A01 T01881032  RH  022%=      5-min Rain = 0
KBY1 132046Z 33004KT 19/M03 A2984 RMK A01 T01881031  RH  022%=      5-min Rain = 0
KBY1 132047Z 36005KT 19/M03 A2984 RMK A01 T01881030  RH  023%=      5-min Rain = 0
KBY1 132048Z 35003KT 19/M03 A2984 RMK A01 T01901029  RH  023%=      5-min Rain = 0
KBY1 132049Z 05002KT 19/M03 A2984 RMK A01 T01911030  RH  022%=      5-min Rain = 0
KBY1 132050Z 05002KT 19/M03 A2984 RMK A01 T01911030  RH  022%=      5-min Rain = 0
KBY1 132051Z 33001KT 19/M03 A2984 RMK A01 T01901031  RH  022%=      5-min Rain = 0
KBY1 132052Z 01002KT 19/M03 A2984 RMK A01 T01901029  RH  022%=      5-min Rain = 0
KBY1 132053Z 02003KT 19/M03 A2984 RMK A01 T01921029  RH  022%=      5-min Rain = 0
KBY1 132054Z 05002KT 19/M03 A2984 RMK A01 T01911027  RH  023%=      5-min Rain = 0
KBY1 132055Z 04003KT 19/M03 A2984 RMK A01 T01921027  RH  023%=      5-min Rain = 0
KBY1 132056Z 04004KT 19/M03 A2984 RMK A01 T01921029  RH  022%=      5-min Rain = 0
KBY1 132057Z 06003KT 19/M03 A2984 RMK A01 T01911030  RH  022%=      5-min Rain = 0
KBY1 132058Z 03003KT 19/M03 A2984 RMK A01 T01901029  RH  022%=      5-min Rain = 0
KBY1 132059Z 03001KT 19/M03 A2984 RMK A01 T01891031  RH  022%=      5-min Rain = 0
KBY1 132100Z 34001KT 19/M03 A2984 RMK A01 T01891031  RH  022%=      5-min Rain = 0
KBY1 132101Z 36001KT 19/M03 A2984 RMK A01 T01891032  RH  022%=      5-min Rain = 0
KBY1 132102Z 06001KT 19/M03 A2984 RMK A01 T01891032  RH  022%=      5-min Rain = 0
KBY1 132103Z 03003KT 19/M03 A2984 RMK A01 T01901030  RH  022%=      5-min Rain = 0
KBY1 132104Z 05002KT 19/M03 A2984 RMK A01 T01911031  RH  022%=      5-min Rain = 0
KBY1 132105Z 07003KT 19/M03 A2984 RMK A01 T01891031  RH  022%=      5-min Rain = 0
KBY1 132106Z 06002KT 19/M03 A2984 RMK A01 T01891031  RH  022%=      5-min Rain = 0
KBY1 132107Z 03005KT 19/M03 A2984 RMK A01 T01891029  RH  023%=      5-min Rain = 0
KBY1 132108Z 06004KT 19/M03 A2984 RMK A01 T01891030  RH  022%=      5-min Rain = 0
KBY1 132109Z 09003KT 19/M03 A2984 RMK A01 T01881032  RH  022%=      5-min Rain = 0
KBY1 132110Z 09002KT 19/M03 A2984 RMK A01 T01871029  RH  023%=      5-min Rain = 0
KBY1 132111Z 02003KT 19/M03 A2984 RMK A01 T01891027  RH  023%=      5-min Rain = 0
KBY1 132112Z 02004KT 19/M03 A2984 RMK A01 T01911029  RH  022%=      5-min Rain = 0
KBY1 132113Z 03005KT 19/M03 A2984 RMK A01 T01901030  RH  022%=      5-min Rain = 0
KBY1 132114Z 02006KT 19/M03 A2984 RMK A01 T01901028  RH  023%=      5-min Rain = 0
KBY1 132115Z 01005KT 19/M03 A2984 RMK A01 T01901027  RH  023%=      5-min Rain = 0
KBY1 132116Z 35005KT 19/M03 A2984 RMK A01 T01911030  RH  022%=      5-min Rain = 0
KBY1 132117Z 02004KT 19/M03 A2984 RMK A01 T01901030  RH  022%=      5-min Rain = 0
KBY1 132118Z 01003KT 19/M03 A2984 RMK A01 T01901027  RH  023%=      5-min Rain = 0
KBY1 132119Z 03004KT 19/M03 A2984 RMK A01 T01901026  RH  023%=      5-min Rain = 0
KBY1 132120Z 03005KT 19/M03 A2984 RMK A01 T01911029  RH  022%=      5-min Rain = 0
KBY1 132121Z 03007KT 19/M03 A2984 RMK A01 T01901028  RH  023%=      5-min Rain = 0
KBY1 132122Z 03007KT 19/M03 A2984 RMK A01 T01891029  RH  023%=      5-min Rain = 0
KBY1 132123Z 03007KT 19/M03 A2984 RMK A01 T01891030  RH  023%=      5-min Rain = 0
KBY1 132124Z 04006KT 19/M03 A2984 RMK A01 T01871031  RH  023%=      5-min Rain = 0
KBY1 132125Z 05005KT 19/M03 A2984 RMK A01 T01851031  RH  023%=      5-min Rain = 0
KBY1 132126Z 06005KT 19/M03 A2984 RMK A01 T01851030  RH  023%=      5-min Rain = 0
KBY1 132127Z 08003KT 19/M03 A2984 RMK A01 T01851031  RH  023%=      5-min Rain = 0
KBY1 132128Z 05003KT 19/M03 A2984 RMK A01 T01851031  RH  023%=      5-min Rain = 0
KBY1 132129Z 04004KT 19/M03 A2984 RMK A01 T01861030  RH  023%=      5-min Rain = 0
KBY1 132130Z 05005KT 19/M03 A2984 RMK A01 T01871030  RH  023%=      5-min Rain = 0
KBY1 132131Z 05005KT 19/M03 A2984 RMK A01 T01871030  RH  023%=      5-min Rain = 0
KBY1 132132Z 06004KT 19/M03 A2984 RMK A01 T01861030  RH  023%=      5-min Rain = 0
KBY1 132133Z 05004KT 19/M03 A2984 RMK A01 T01861030  RH  023%=      5-min Rain = 0
KBY1 132134Z 01003KT 19/M03 A2984 RMK A01 T01851029  RH  023%=      5-min Rain = 0
KBY1 132135Z 01004KT 19/M03 A2984 RMK A01 T01871029  RH  023%=      5-min Rain = 0
KBY1 132136Z 03006KT 19/M03 A2984 RMK A01 T01871029  RH  023%=      5-min Rain = 0
KBY1 132137Z 02007KT 19/M03 A2984 RMK A01 T01871030  RH  023%=      5-min Rain = 0
KBY1 132138Z 02004KT 19/M03 A2984 RMK A01 T01861031  RH  023%=      5-min Rain = 0
KBY1 132139Z 02005KT 19/M03 A2984 RMK A01 T01851030  RH  023%=      5-min Rain = 0
KBY1 132140Z 05005KT 18/M03 A2985 RMK A01 T01841029  RH  023%=      5-min Rain = 0
KBY1 132141Z 06006KT 19/M03 A2985 RMK A01 T01851028  RH  023%=      5-min Rain = 0
KBY1 132142Z 06006KT 19/M03 A2985 RMK A01 T01851030  RH  023%=      5-min Rain = 0
KBY1 132143Z 07006KT 18/M03 A2985 RMK A01 T01841030  RH  023%=      5-min Rain = 0
KBY1 132144Z 07006KT 18/M03 A2985 RMK A01 T01841028  RH  024%=      5-min Rain = 0
KBY1 132145Z 07006KT 18/M03 A2985 RMK A01 T01841029  RH  023%=      5-min Rain = 0
KBY1 132146Z 08006KT 18/M03 A2985 RMK A01 T01841029  RH  023%=      5-min Rain = 0
KBY1 132147Z 07006KT 18/M03 A2985 RMK A01 T01831031  RH  023%=      5-min Rain = 0
KBY1 132148Z 06006KT 18/M03 A2985 RMK A01 T01831030  RH  023%=      5-min Rain = 0
KBY1 132149Z 08007KT 18/M03 A2985 RMK A01 T01831029  RH  024%=      5-min Rain = 0
KBY1 132150Z 08006KT 18/M03 A2985 RMK A01 T01831029  RH  023%=      5-min Rain = 0
KBY1 132151Z 07006KT 18/M03 A2985 RMK A01 T01831030  RH  023%=      5-min Rain = 0
KBY1 132152Z 06006KT 18/M03 A2985 RMK A01 T01831029  RH  023%=      5-min Rain = 0
KBY1 132153Z 05006KT 18/M03 A2985 RMK A01 T01831030  RH  023%=      5-min Rain = 0
KBY1 132154Z 04006KT 18/M03 A2984 RMK A01 T01821030  RH  023%=      5-min Rain = 0
KBY1 132155Z 04004KT 18/M03 A2984 RMK A01 T01831030  RH  023%=      5-min Rain = 0
KBY1 132156Z 06004KT 18/M03 A2984 RMK A01 T01831030  RH  023%=      5-min Rain = 0
KBY1 132157Z 06005KT 18/M03 A2984 RMK A01 T01831030  RH  023%=      5-min Rain = 0
KBY1 132158Z 04005KT 18/M03 A2984 RMK A01 T01831029  RH  023%=      5-min Rain = 0
KBY1 132159Z 05004KT 18/M03 A2984 RMK A01 T01831030  RH  023%=      5-min Rain = 0
KBY1 132200Z 06005KT 18/M03 A2984 RMK A01 T01831031  RH  023%=      5-min Rain = 0
KBY1 132201Z 07005KT 18/M03 A2984 RMK A01 T01821032  RH  023%=      5-min Rain = 0
KBY1 132202Z 08005KT 18/M03 A2984 RMK A01 T01821032  RH  023%=      5-min Rain = 0
KBY1 132203Z 07003KT 18/M03 A2984 RMK A01 T01811031  RH  023%=      5-min Rain = 0
KBY1 132204Z 06003KT 18/M03 A2984 RMK A01 T01811032  RH  023%=      5-min Rain = 0
KBY1 132205Z 07003KT 18/M03 A2985 RMK A01 T01811032  RH  023%=      5-min Rain = 0
KBY1 132206Z 07003KT 18/M03 A2985 RMK A01 T01821031  RH  023%=      5-min Rain = 0
KBY1 132207Z 06003KT 18/M03 A2985 RMK A01 T01821032  RH  023%=      5-min Rain = 0
KBY1 132208Z 05004KT 18/M03 A2985 RMK A01 T01821032  RH  023%=      5-min Rain = 0
KBY1 132209Z 06003KT 18/M03 A2985 RMK A01 T01821032  RH  023%=      5-min Rain = 0
KBY1 132210Z 08003KT 18/M03 A2985 RMK A01 T01831031  RH  023%=      5-min Rain = 0
KBY1 132211Z 08003KT 18/M03 A2986 RMK A01 T01831032  RH  023%=      5-min Rain = 0
KBY1 132212Z 06004KT 18/M03 A2986 RMK A01 T01821031  RH  023%=      5-min Rain = 0
KBY1 132213Z 05003KT 18/M03 A2986 RMK A01 T01821031  RH  023%=      5-min Rain = 0
KBY1 132214Z 01003KT 18/M03 A2986 RMK A01 T01821032  RH  023%=      5-min Rain = 0
KBY1 132215Z 01002KT 18/M03 A2986 RMK A01 T01821033  RH  023%=      5-min Rain = 0
KBY1 132216Z 05003KT 18/M03 A2986 RMK A01 T01821033  RH  023%=      5-min Rain = 0
KBY1 132217Z 07003KT 18/M03 A2986 RMK A01 T01811032  RH  023%=      5-min Rain = 0
KBY1 132218Z 08003KT 18/M03 A2986 RMK A01 T01821032  RH  023%=      5-min Rain = 0
KBY1 132219Z 07003KT 18/M03 A2986 RMK A01 T01821031  RH  023%=      5-min Rain = 0
KBY1 132220Z 06004KT 18/M03 A2986 RMK A01 T01821031  RH  023%=      5-min Rain = 0
KBY1 132221Z 07003KT 18/M03 A2986 RMK A01 T01821032  RH  023%=      5-min Rain = 0
KBY1 132222Z 09003KT 18/M03 A2986 RMK A01 T01821032  RH  023%=      5-min Rain = 0
KBY1 132223Z 08003KT 18/M03 A2986 RMK A01 T01811031  RH  023%=      5-min Rain = 0
KBY1 132224Z 08004KT 18/M03 A2986 RMK A01 T01811031  RH  023%=      5-min Rain = 0
KBY1 132225Z 09004KT 18/M03 A2985 RMK A01 T01811031  RH  023%=      5-min Rain = 0
KBY1 132226Z 09004KT 18/M03 A2985 RMK A01 T01811031  RH  023%=      5-min Rain = 0
KBY1 132227Z 08004KT 18/M03 A2985 RMK A01 T01811029  RH  024%=      5-min Rain = 0
KBY1 132228Z 09005KT 18/M03 A2985 RMK A01 T01801030  RH  024%=      5-min Rain = 0
KBY1 132229Z 08006KT 18/M03 A2985 RMK A01 T01791029  RH  024%=      5-min Rain = 0
KBY1 132230Z 08007KT 18/M03 A2985 RMK A01 T01781028  RH  024%=      5-min Rain = 0
KBY1 132231Z 08006KT 18/M03 A2985 RMK A01 T01771028  RH  025%=      5-min Rain = 0
KBY1 132232Z 07007KT 18/M03 A2985 RMK A01 T01761028  RH  025%=      5-min Rain = 0
KBY1 132233Z 08007KT 18/M03 A2985 RMK A01 T01751027  RH  025%=      5-min Rain = 0
KBY1 132234Z 07007KT 17/M03 A2985 RMK A01 T01741028  RH  025%=      5-min Rain = 0
KBY1 132235Z 08008KT 17/M03 A2985 RMK A01 T01741028  RH  025%=      5-min Rain = 0
KBY1 132236Z 08007KT 17/M03 A2985 RMK A01 T01731028  RH  025%=      5-min Rain = 0
KBY1 132237Z 08007KT 17/M03 A2985 RMK A01 T01731028  RH  025%=      5-min Rain = 0
KBY1 132238Z 07007KT 17/M03 A2985 RMK A01 T01721028  RH  025%=      5-min Rain = 0
KBY1 132239Z 08007KT 17/M03 A2985 RMK A01 T01711028  RH  026%=      5-min Rain = 0
KBY1 132240Z 08009KT 17/M03 A2985 RMK A01 T01711027  RH  026%=      5-min Rain = 0
KBY1 132241Z 07009KT 17/M03 A2985 RMK A01 T01701028  RH  026%=      5-min Rain = 0
KBY1 132242Z 07008KT 17/M03 A2984 RMK A01 T01691028  RH  026%=      5-min Rain = 0
KBY1 132243Z 08009KT 17/M03 A2984 RMK A01 T01691027  RH  026%=      5-min Rain = 0
KBY1 132244Z 07009KT 17/M03 A2984 RMK A01 T01681028  RH  026%=      5-min Rain = 0
KBY1 132245Z 07009KT 17/M03 A2984 RMK A01 T01671028  RH  026%=      5-min Rain = 0
KBY1 132246Z 08007KT 17/M03 A2984 RMK A01 T01661028  RH  026%=      5-min Rain = 0
KBY1 132247Z 08008KT 17/M03 A2985 RMK A01 T01651029  RH  026%=      5-min Rain = 0
KBY1 132248Z 08008KT 17/M03 A2985 RMK A01 T01651028  RH  026%=      5-min Rain = 0
KBY1 132249Z 08008KT 16/M03 A2985 RMK A01 T01641028  RH  027%=      5-min Rain = 0
KBY1 132250Z 08008KT 16/M03 A2985 RMK A01 T01641027  RH  027%=      5-min Rain = 0
KBY1 132251Z 08009KT 16/M03 A2985 RMK A01 T01631028  RH  027%=      5-min Rain = 0
KBY1 132252Z 08009KT 16/M03 A2985 RMK A01 T01631029  RH  027%=      5-min Rain = 0
KBY1 132253Z 08009KT 16/M03 A2985 RMK A01 T01631029  RH  027%=      5-min Rain = 0
KBY1 132254Z 07008KT 16/M03 A2985 RMK A01 T01621030  RH  027%=      5-min Rain = 0
KBY1 132255Z 07007KT 16/M03 A2985 RMK A01 T01621028  RH  027%=      5-min Rain = 0
KBY1 132256Z 07007KT 16/M03 A2985 RMK A01 T01611027  RH  027%=      5-min Rain = 0
KBY1 132257Z 07007KT 16/M03 A2985 RMK A01 T01601027  RH  028%=      5-min Rain = 0
KBY1 132258Z 07006KT 16/M03 A2985 RMK A01 T01591027  RH  028%=      5-min Rain = 0
KBY1 132259Z 06006KT 16/M03 A2985 RMK A01 T01591027  RH  028%=      5-min Rain = 0
KBY1 132300Z 07007KT 16/M03 A2985 RMK A01 T01591027  RH  028%=      5-min Rain = 0
KBY1 132301Z 07006KT 16/M03 A2985 RMK A01 T01581028  RH  028%=      5-min Rain = 0
KBY1 132302Z 07006KT 16/M03 A2985 RMK A01 T01571027  RH  028%=      5-min Rain = 0
KBY1 132303Z 07006KT 16/M03 A2986 RMK A01 T01571027  RH  028%=      5-min Rain = 0
KBY1 132304Z 07006KT 16/M03 A2986 RMK A01 T01561027  RH  028%=      5-min Rain = 0
KBY1 132305Z 07006KT 16/M03 A2986 RMK A01 T01551028  RH  028%=      5-min Rain = 0
KBY1 132306Z 07007KT 16/M03 A2986 RMK A01 T01551028  RH  028%=      5-min Rain = 0
KBY1 132307Z 07007KT 15/M03 A2986 RMK A01 T01541028  RH  028%=      5-min Rain = 0
KBY1 132308Z 07006KT 15/M03 A2986 RMK A01 T01541029  RH  028%=      5-min Rain = 0
KBY1 132309Z 08006KT 15/M03 A2986 RMK A01 T01541028  RH  028%=      5-min Rain = 0
KBY1 132310Z 08006KT 15/M03 A2986 RMK A01 T01531028  RH  029%=      5-min Rain = 0
KBY1 132311Z 08006KT 15/M03 A2986 RMK A01 T01511028  RH  029%=      5-min Rain = 0
KBY1 132312Z 08006KT 15/M03 A2986 RMK A01 T01491029  RH  029%=      5-min Rain = 0
KBY1 132313Z 08006KT 15/M03 A2986 RMK A01 T01481029  RH  029%=      5-min Rain = 0
KBY1 132314Z 08005KT 15/M03 A2986 RMK A01 T01471029  RH  030%=      5-min Rain = 0
KBY1 132315Z 08006KT 15/M03 A2986 RMK A01 T01461028  RH  030%=      5-min Rain = 0
KBY1 132316Z 08006KT 15/M03 A2986 RMK A01 T01461028  RH  030%=      5-min Rain = 0
KBY1 132317Z 08006KT 15/M03 A2986 RMK A01 T01461028  RH  030%=      5-min Rain = 0
KBY1 132318Z 07005KT 15/M03 A2986 RMK A01 T01451027  RH  030%=      5-min Rain = 0
KBY1 132319Z 06006KT 14/M03 A2986 RMK A01 T01441027  RH  031%=      5-min Rain = 0
KBY1 132320Z 06005KT 14/M03 A2986 RMK A01 T01431027  RH  031%=      5-min Rain = 0
KBY1 132321Z 06005KT 14/M03 A2986 RMK A01 T01421028  RH  031%=      5-min Rain = 0
KBY1 132322Z 06005KT 14/M03 A2987 RMK A01 T01421028  RH  031%=      5-min Rain = 0
KBY1 132323Z 06005KT 14/M03 A2987 RMK A01 T01431028  RH  031%=      5-min Rain = 0
KBY1 132324Z 07005KT 14/M03 A2987 RMK A01 T01431028  RH  031%=      5-min Rain = 0
KBY1 132325Z 07004KT 14/M03 A2987 RMK A01 T01421028  RH  031%=      5-min Rain = 0
KBY1 132326Z 08004KT 14/M03 A2987 RMK A01 T01411028  RH  031%=      5-min Rain = 0
KBY1 132327Z 08005KT 14/M03 A2987 RMK A01 T01401029  RH  031%=      5-min Rain = 0
KBY1 132328Z 08005KT 14/M03 A2987 RMK A01 T01391028  RH  031%=      5-min Rain = 0
KBY1 132329Z 08005KT 14/M03 A2987 RMK A01 T01381028  RH  032%=      5-min Rain = 0
KBY1 132330Z 08005KT 14/M03 A2986 RMK A01 T01361029  RH  032%=      5-min Rain = 0
KBY1 132331Z 08005KT 14/M03 A2986 RMK A01 T01351028  RH  032%=      5-min Rain = 0
KBY1 132332Z 08005KT 13/M03 A2986 RMK A01 T01341029  RH  032%=      5-min Rain = 0
KBY1 132333Z 09004KT 13/M03 A2986 RMK A01 T01331029  RH  032%=      5-min Rain = 0
KBY1 132334Z 09004KT 13/M03 A2986 RMK A01 T01311030  RH  033%=      5-min Rain = 0
KBY1 132335Z 10004KT 13/M03 A2987 RMK A01 T01291030  RH  033%=      5-min Rain = 0
KBY1 132336Z 10003KT 13/M03 A2987 RMK A01 T01281030  RH  033%=      5-min Rain = 0
KBY1 132337Z 09004KT 13/M03 A2987 RMK A01 T01271030  RH  033%=      5-min Rain = 0
KBY1 132338Z 10003KT 13/M03 A2987 RMK A01 T01261030  RH  034%=      5-min Rain = 0
KBY1 132339Z 10003KT 13/M03 A2987 RMK A01 T01251030  RH  034%=      5-min Rain = 0
KBY1 132340Z 10003KT 13/M03 A2987 RMK A01 T01251029  RH  034%=      5-min Rain = 0
KBY1 132341Z 11003KT 12/M03 A2987 RMK A01 T01241029  RH  034%=      5-min Rain = 0
KBY1 132342Z 10004KT 12/M03 A2987 RMK A01 T01231030  RH  034%=      5-min Rain = 0
KBY1 132343Z 09004KT 12/M03 A2987 RMK A01 T01231030  RH  034%=      5-min Rain = 0
KBY1 132344Z 08004KT 12/M03 A2987 RMK A01 T01211029  RH  035%=      5-min Rain = 0
KBY1 132345Z 08004KT 12/M03 A2987 RMK A01 T01191030  RH  035%=      5-min Rain = 0
KBY1 132346Z 08004KT 12/M03 A2987 RMK A01 T01171030  RH  035%=      5-min Rain = 0
KBY1 132347Z 08004KT 12/M03 A2987 RMK A01 T01151031  RH  036%=      5-min Rain = 0
KBY1 132348Z 08004KT 11/M03 A2987 RMK A01 T01131031  RH  037%=      5-min Rain = 0
KBY1 132349Z 09004KT 11/M03 A2987 RMK A01 T01111031  RH  037%=      5-min Rain = 0
KBY1 132350Z 08004KT 11/M03 A2987 RMK A01 T01101031  RH  037%=      5-min Rain = 0
KBY1 132351Z 08003KT 11/M03 A2987 RMK A01 T01081031  RH  038%=      5-min Rain = 0
KBY1 132352Z 06002KT 11/M03 A2987 RMK A01 T01081030  RH  038%=      5-min Rain = 0
KBY1 132353Z 05003KT 11/M03 A2987 RMK A01 T01091030  RH  038%=      5-min Rain = 0
KBY1 132354Z 05004KT 11/M03 A2987 RMK A01 T01111030  RH  037%=      5-min Rain = 0
KBY1 132355Z 04004KT 11/M03 A2987 RMK A01 T01141029  RH  037%=      5-min Rain = 0
KBY1 132356Z 03004KT 11/M03 A2987 RMK A01 T01141030  RH  036%=      5-min Rain = 0
KBY1 132357Z 03003KT 11/M03 A2987 RMK A01 T01141030  RH  036%=      5-min Rain = 0
KBY1 132358Z 04003KT 11/M03 A2987 RMK A01 T01141030  RH  037%=      5-min Rain = 0
KBY1 132359Z 05003KT 11/M03 A2987 RMK A01 T01131030  RH  037%=      5-min Rain = 0
KBY1 140000Z 06003KT 11/M03 A2987 RMK A01 T01131030  RH  037%=      5-min Rain = 0
KBY1 140001Z 08003KT 11/M03 A2987 RMK A01 T01121030  RH  037%=      5-min Rain = 0
KBY1 140002Z 09003KT 11/M03 A2987 RMK A01 T01091031  RH  037%=      5-min Rain = 0
KBY1 140003Z 11003KT 10/M03 A2987 RMK A01 T01031033  RH  038%=      5-min Rain = 0
KBY1 140004Z 11004KT 10/M03 A2987 RMK A01 T00981034  RH  039%=      5-min Rain = 0
KBY1 140005Z 13004KT 09/M04 A2987 RMK A01 T00941035  RH  040%=      5-min Rain = 0
KBY1 140006Z 14004KT 09/M04 A2987 RMK A01 T00911036  RH  041%=      5-min Rain = 0
KBY1 140007Z 14004KT 09/M04 A2987 RMK A01 T00871037  RH  041%=      5-min Rain = 0
KBY1 140008Z 12004KT 09/M04 A2987 RMK A01 T00861035  RH  042%=      5-min Rain = 0
KBY1 140009Z 12004KT 09/M04 A2987 RMK A01 T00861035  RH  043%=      5-min Rain = 0
KBY1 140010Z 13004KT 09/M04 A2987 RMK A01 T00861035  RH  043%=      5-min Rain = 0
KBY1 140011Z 13005KT 09/M03 A2987 RMK A01 T00861033  RH  043%=      5-min Rain = 0
KBY1 140012Z 13005KT 09/M03 A2988 RMK A01 T00871033  RH  043%=      5-min Rain = 0
KBY1 140013Z 12005KT 09/M03 A2988 RMK A01 T00871032  RH  043%=      5-min Rain = 0
KBY1 140014Z 11005KT 09/M03 A2988 RMK A01 T00871032  RH  043%=      5-min Rain = 0
KBY1 140015Z 09004KT 09/M03 A2988 RMK A01 T00861033  RH  043%=      5-min Rain = 0
KBY1 140016Z 07004KT 09/M03 A2988 RMK A01 T00861033  RH  043%=      5-min Rain = 0
KBY1 140017Z 05003KT 09/M03 A2988 RMK A01 T00861032  RH  043%=      5-min Rain = 0
KBY1 140018Z 05003KT 09/M03 A2988 RMK A01 T00851032  RH  043%=      5-min Rain = 0
KBY1 140019Z 05002KT 09/M03 A2988 RMK A01 T00861031  RH  044%=      5-min Rain = 0
KBY1 140020Z 04001KT 09/M03 A2988 RMK A01 T00871031  RH  043%=      5-min Rain = 0
KBY1 140021Z 02001KT 09/M03 A2988 RMK A01 T00871031  RH  043%=      5-min Rain = 0
KBY1 140022Z 02001KT 09/M03 A2988 RMK A01 T00881031  RH  043%=      5-min Rain = 0
KBY1 140023Z 04001KT 09/M03 A2988 RMK A01 T00891031  RH  043%=      5-min Rain = 0
KBY1 140024Z 05002KT 09/M03 A2988 RMK A01 T00901031  RH  042%=      5-min Rain = 0
KBY1 140025Z 05002KT 09/M03 A2988 RMK A01 T00911031  RH  042%=      5-min Rain = 0
KBY1 140026Z 05002KT 09/M03 A2988 RMK A01 T00921031  RH  042%=      5-min Rain = 0
KBY1 140027Z 05002KT 09/M03 A2988 RMK A01 T00931031  RH  041%=      5-min Rain = 0
KBY1 140028Z 04002KT 09/M03 A2988 RMK A01 T00931032  RH  041%=      5-min Rain = 0
KBY1 140029Z 03003KT 09/M03 A2988 RMK A01 T00921032  RH  041%=      5-min Rain = 0
KBY1 140030Z 03004KT 09/M03 A2988 RMK A01 T00901033  RH  042%=      5-min Rain = 0
KBY1 140031Z 03003KT 09/M03 A2988 RMK A01 T00871033  RH  043%=      5-min Rain = 0
KBY1 140032Z 03003KT 09/M03 A2989 RMK A01 T00851032  RH  043%=      5-min Rain = 0
KBY1 140033Z 02004KT 09/M03 A2989 RMK A01 T00851031  RH  044%=      5-min Rain = 0
KBY1 140034Z 01005KT 09/M03 A2989 RMK A01 T00861030  RH  044%=      5-min Rain = 0
KBY1 140035Z 01006KT 09/M03 A2989 RMK A01 T00861030  RH  044%=      5-min Rain = 0
KBY1 140036Z 36008KT 09/M03 A299 RMK A01 T00871029  RH  044%=      5-min Rain = 0
KBY1 140037Z 35007KT 09/M03 A299 RMK A01 T00871030  RH  044%=      5-min Rain = 0
KBY1 140038Z 00006KT 09/M03 A299 RMK A01 T00871031  RH  043%=      5-min Rain = 0
KBY1 140039Z 01005KT 09/M03 A299 RMK A01 T00851032  RH  044%=      5-min Rain = 0
KBY1 140040Z 03004KT 08/M03 A299 RMK A01 T00831033  RH  044%=      5-min Rain = 0
KBY1 140041Z 04003KT 08/M03 A299 RMK A01 T00811033  RH  044%=      5-min Rain = 0
KBY1 140042Z 03003KT 08/M03 A299 RMK A01 T00791032  RH  045%=      5-min Rain = 0
KBY1 140043Z 02003KT 08/M03 A299 RMK A01 T00771033  RH  046%=      5-min Rain = 0
KBY1 140044Z 01003KT 08/M03 A299 RMK A01 T00751034  RH  046%=      5-min Rain = 0
KBY1 140045Z 00004KT 08/M03 A2991 RMK A01 T00751033  RH  046%=      5-min Rain = 0
KBY1 140046Z 00005KT 08/M03 A2991 RMK A01 T00751033  RH  046%=      5-min Rain = 0
KBY1 140047Z 36005KT 08/M03 A2991 RMK A01 T00751032  RH  047%=      5-min Rain = 0
KBY1 140048Z 36006KT 08/M03 A2992 RMK A01 T00751031  RH  047%=      5-min Rain = 0
KBY1 140049Z 00006KT 07/M03 A2992 RMK A01 T00741031  RH  047%=      5-min Rain = 0
KBY1 140050Z 01006KT 07/M03 A2992 RMK A01 T00741030  RH  048%=      5-min Rain = 0
KBY1 140051Z 01006KT 07/M03 A2992 RMK A01 T00741030  RH  047%=      5-min Rain = 0
KBY1 140052Z 02005KT 08/M03 A2991 RMK A01 T00751030  RH  047%=      5-min Rain = 0
KBY1 140053Z 02004KT 07/M03 A2991 RMK A01 T00741030  RH  048%=      5-min Rain = 0
KBY1 140054Z 03004KT 08/M03 A2991 RMK A01 T00751029  RH  048%=      5-min Rain = 0
KBY1 140055Z 02003KT 08/M03 A2991 RMK A01 T00751029  RH  048%=      5-min Rain = 0
KBY1 140056Z 02001KT 07/M03 A2991 RMK A01 T00741029  RH  048%=      5-min Rain = 0
KBY1 140057Z 02001KT 07/M03 A2991 RMK A01 T00701032  RH  048%=      5-min Rain = 0
KBY1 140058Z 02000KT 07/M03 A2991 RMK A01 T00661034  RH  049%=      5-min Rain = 0
KBY1 140059Z 00000KT 06/M03 A2991 RMK A01 T00631034  RH  050%=      5-min Rain = 0
KBY1 140100Z 21001KT 06/M03 A2991 RMK A01 T00621034  RH  050%=      5-min Rain = 0
KBY1 140101Z 22002KT 06/M03 A2991 RMK A01 T00591034  RH  051%=      5-min Rain = 0
KBY1 140102Z 23002KT 06/M03 A2991 RMK A01 T00591033  RH  052%=      5-min Rain = 0
KBY1 140103Z 22001KT 06/M03 A2991 RMK A01 T00581032  RH  052%=      5-min Rain = 0
KBY1 140104Z 36000KT 06/M03 A2991 RMK A01 T00591031  RH  052%=      5-min Rain = 0
KBY1 140105Z 02001KT 06/M03 A2991 RMK A01 T00621030  RH  052%=      5-min Rain = 0
KBY1 140106Z 07001KT 06/M03 A2991 RMK A01 T00641030  RH  051%=      5-min Rain = 0
KBY1 140107Z 12002KT 06/M03 A2991 RMK A01 T00641030  RH  051%=      5-min Rain = 0
KBY1 140108Z 13003KT 06/M03 A2991 RMK A01 T00641031  RH  051%=      5-min Rain = 0
KBY1 140109Z 14003KT 06/M03 A2991 RMK A01 T00611034  RH  051%=      5-min Rain = 0
KBY1 140110Z 16003KT 06/M04 A2991 RMK A01 T00561037  RH  051%=      5-min Rain = 0
KBY1 140111Z 18003KT 05/M04 A2991 RMK A01 T00521037  RH  053%=      5-min Rain = 0
KBY1 140112Z 22002KT 05/M04 A2991 RMK A01 T00501036  RH  054%=      5-min Rain = 0
KBY1 140113Z 26002KT 05/M03 A2992 RMK A01 T00511033  RH  055%=      5-min Rain = 0
KBY1 140114Z 29002KT 06/M03 A2992 RMK A01 T00551031  RH  054%=      5-min Rain = 0
KBY1 140115Z 30002KT 06/M03 A2992 RMK A01 T00571031  RH  053%=      5-min Rain = 0
KBY1 140116Z 29002KT 06/M03 A2992 RMK A01 T00581030  RH  053%=      5-min Rain = 0
KBY1 140117Z 28001KT 06/M03 A2992 RMK A01 T00591030  RH  053%=      5-min Rain = 0
KBY1 140118Z 29001KT 06/M03 A2992 RMK A01 T00601029  RH  052%=      5-min Rain = 0
KBY1 140119Z 31001KT 06/M03 A2992 RMK A01 T00621029  RH  052%=      5-min Rain = 0
KBY1 140120Z 33003KT 06/M03 A2992 RMK A01 T00631028  RH  052%=      5-min Rain = 0
KBY1 140121Z 34002KT 06/M03 A2992 RMK A01 T00631027  RH  052%=      5-min Rain = 0
KBY1 140122Z 01000KT 06/M03 A2992 RMK A01 T00631027  RH  053%=      5-min Rain = 0
KBY1 140123Z 00000KT 06/M03 A2992 RMK A01 T00631028  RH  052%=      5-min Rain = 0
KBY1 140124Z 13000KT 06/M03 A2992 RMK A01 T00641027  RH  052%=      5-min Rain = 0
KBY1 140125Z 00000KT 06/M03 A2992 RMK A01 T00641026  RH  052%=      5-min Rain = 0
KBY1 140126Z 35000KT 06/M03 A2992 RMK A01 T00621027  RH  053%=      5-min Rain = 0
KBY1 140127Z 34002KT 06/M03 A2992 RMK A01 T00591028  RH  053%=      5-min Rain = 0
KBY1 140128Z 35005KT 06/M03 A2992 RMK A01 T00561028  RH  055%=      5-min Rain = 0
KBY1 140129Z 35005KT 06/M03 A2993 RMK A01 T00551027  RH  055%=      5-min Rain = 0
KBY1 140130Z 35004KT 06/M03 A2993 RMK A01 T00551027  RH  055%=      5-min Rain = 0
KBY1 140131Z 35002KT 06/M03 A2992 RMK A01 T00571028  RH  055%=      5-min Rain = 0
KBY1 140132Z 01001KT 06/M03 A2992 RMK A01 T00591027  RH  054%=      5-min Rain = 0
KBY1 140133Z 03001KT 06/M03 A2992 RMK A01 T00621028  RH  053%=      5-min Rain = 0
KBY1 140134Z 05001KT 06/M03 A2992 RMK A01 T00641028  RH  052%=      5-min Rain = 0
KBY1 140135Z 04001KT 07/M03 A2992 RMK A01 T00661027  RH  051%=      5-min Rain = 0
KBY1 140136Z 24000KT 06/M03 A2992 RMK A01 T00641028  RH  052%=      5-min Rain = 0
KBY1 140137Z 00000KT 06/M03 A2992 RMK A01 T00611028  RH  053%=      5-min Rain = 0
KBY1 140138Z 01001KT 06/M03 A2992 RMK A01 T00591028  RH  053%=      5-min Rain = 0
KBY1 140139Z 02003KT 06/M03 A2992 RMK A01 T00571029  RH  054%=      5-min Rain = 0
KBY1 140140Z 02004KT 06/M03 A2992 RMK A01 T00561029  RH  054%=      5-min Rain = 0
KBY1 140141Z 01003KT 06/M03 A2992 RMK A01 T00571028  RH  054%=      5-min Rain = 0
KBY1 140142Z 35001KT 06/M03 A2992 RMK A01 T00591027  RH  054%=      5-min Rain = 0
KBY1 140143Z 02000KT 06/M03 A2991 RMK A01 T00591028  RH  054%=      5-min Rain = 0
KBY1 140144Z 13000KT 06/M03 A2991 RMK A01 T00571028  RH  054%=      5-min Rain = 0
KBY1 140145Z 13001KT 05/M03 A2991 RMK A01 T00521031  RH  055%=      5-min Rain = 0
KBY1 140146Z 14002KT 05/M03 A2991 RMK A01 T00481030  RH  057%=      5-min Rain = 0
KBY1 140147Z 14001KT 05/M03 A2991 RMK A01 T00461030  RH  058%=      5-min Rain = 0
KBY1 140148Z 14000KT 05/M03 A2991 RMK A01 T00451030  RH  058%=      5-min Rain = 0
KBY1 140149Z 34001KT 05/M03 A2991 RMK A01 T00451029  RH  059%=      5-min Rain = 0
KBY1 140150Z 31002KT 05/M03 A2991 RMK A01 T00461029  RH  058%=      5-min Rain = 0
KBY1 140151Z 31001KT 05/M03 A2992 RMK A01 T00461030  RH  058%=      5-min Rain = 0
KBY1 140152Z 32000KT 05/M03 A2992 RMK A01 T00471030  RH  057%=      5-min Rain = 0
KBY1 140153Z 00000KT 05/M03 A2992 RMK A01 T00491029  RH  057%=      5-min Rain = 0
KBY1 140154Z 20000KT 05/M03 A2992 RMK A01 T00501029  RH  056%=      5-min Rain = 0
KBY1 140155Z 21001KT 05/M03 A2992 RMK A01 T00491031  RH  056%=      5-min Rain = 0
KBY1 140156Z 24002KT 05/M03 A2992 RMK A01 T00451032  RH  057%=      5-min Rain = 0
KBY1 140157Z 25001KT 04/M03 A2992 RMK A01 T00431032  RH  058%=      5-min Rain = 0
KBY1 140158Z 26001KT 04/M03 A2993 RMK A01 T00431031  RH  059%=      5-min Rain = 0
KBY1 140159Z 24001KT 04/M03 A2993 RMK A01 T00441031  RH  058%=      5-min Rain = 0
KBY1 140200Z 23001KT 05/M03 A2993 RMK A01 T00461030  RH  058%=      5-min Rain = 0
KBY1 140201Z 22001KT 05/M03 A2993 RMK A01 T00471031  RH  057%=      5-min Rain = 0
KBY1 140202Z 22001KT 05/M03 A2993 RMK A01 T00471031  RH  057%=      5-min Rain = 0
KBY1 140203Z 21001KT 05/M03 A2993 RMK A01 T00471031  RH  057%=      5-min Rain = 0
KBY1 140204Z 22001KT 05/M03 A2993 RMK A01 T00461032  RH  057%=      5-min Rain = 0
KBY1 140205Z 23000KT 05/M03 A2993 RMK A01 T00451033  RH  057%=      5-min Rain = 0
KBY1 140206Z 00000KT 04/M03 A2993 RMK A01 T00431034  RH  057%=      5-min Rain = 0
KBY1 140207Z 00000KT 04/M03 A2993 RMK A01 T00411033  RH  058%=      5-min Rain = 0
KBY1 140208Z 34000KT 04/M03 A2993 RMK A01 T00411032  RH  059%=      5-min Rain = 0
KBY1 140209Z 35001KT 04/M03 A2993 RMK A01 T00431031  RH  058%=      5-min Rain = 0
KBY1 140210Z 35001KT 04/M03 A2993 RMK A01 T00431032  RH  058%=      5-min Rain = 0
KBY1 140211Z 33000KT 04/M03 A2993 RMK A01 T00431032  RH  058%=      5-min Rain = 0
KBY1 140212Z 35001KT 04/M03 A2993 RMK A01 T00441031  RH  058%=      5-min Rain = 0
KBY1 140213Z 36001KT 05/M03 A2993 RMK A01 T00451031  RH  058%=      5-min Rain = 0
KBY1 140214Z 00002KT 04/M03 A2993 RMK A01 T00441032  RH  058%=      5-min Rain = 0
KBY1 140215Z 02002KT 04/M03 A2993 RMK A01 T00411033  RH  058%=      5-min Rain = 0
KBY1 140216Z 01003KT 04/M03 A2993 RMK A01 T00401032  RH  059%=      5-min Rain = 0
KBY1 140217Z 00003KT 04/M03 A2993 RMK A01 T00401032  RH  060%=      5-min Rain = 0
KBY1 140218Z 36002KT 04/M03 A2993 RMK A01 T00391033  RH  060%=      5-min Rain = 0
KBY1 140219Z 34001KT 04/M03 A2993 RMK A01 T00401032  RH  060%=      5-min Rain = 0
KBY1 140220Z 34001KT 04/M03 A2993 RMK A01 T00431031  RH  058%=      5-min Rain = 0
KBY1 140221Z 36004KT 05/M03 A2994 RMK A01 T00451032  RH  058%=      5-min Rain = 0
KBY1 140222Z 00003KT 04/M03 A2994 RMK A01 T00431032  RH  058%=      5-min Rain = 0
KBY1 140223Z 01003KT 04/M03 A2994 RMK A01 T00421032  RH  058%=      5-min Rain = 0
KBY1 140224Z 35004KT 04/M03 A2994 RMK A01 T00411033  RH  059%=      5-min Rain = 0
KBY1 140225Z 35004KT 04/M03 A2994 RMK A01 T00391034  RH  059%=      5-min Rain = 0
KBY1 140226Z 01004KT 04/M03 A2994 RMK A01 T00381033  RH  060%=      5-min Rain = 0
KBY1 140227Z 01003KT 04/M03 A2994 RMK A01 T00391032  RH  060%=      5-min Rain = 0
KBY1 140228Z 35003KT 04/M03 A2994 RMK A01 T00401032  RH  059%=      5-min Rain = 0
KBY1 140229Z 34002KT 04/M03 A2995 RMK A01 T00431031  RH  059%=      5-min Rain = 0
KBY1 140230Z 25001KT 04/M04 A2995 RMK A01 T00381039  RH  057%=      5-min Rain = 0
KBY1 140231Z 27001KT 03/M04 A2995 RMK A01 T00311040  RH  060%=      5-min Rain = 0
KBY1 140232Z 31002KT 03/M04 A2995 RMK A01 T00281038  RH  062%=      5-min Rain = 0
KBY1 140233Z 33001KT 03/M04 A2995 RMK A01 T00271036  RH  063%=      5-min Rain = 0
KBY1 140234Z 06000KT 03/M04 A2995 RMK A01 T00271036  RH  063%=      5-min Rain = 0
KBY1 140235Z 09000KT 03/M04 A2995 RMK A01 T00251038  RH  063%=      5-min Rain = 0
KBY1 140236Z 00000KT 02/M04 A2995 RMK A01 T00211039  RH  064%=      5-min Rain = 0
KBY1 140237Z 00000KT 02/M04 A2996 RMK A01 T00181041  RH  065%=      5-min Rain = 0
KBY1 140238Z 01000KT 02/M04 A2996 RMK A01 T00161040  RH  066%=      5-min Rain = 0
KBY1 140239Z 01001KT 02/M04 A2996 RMK A01 T00151038  RH  068%=      5-min Rain = 0
KBY1 140240Z 03000KT 02/M04 A2996 RMK A01 T00151037  RH  069%=      5-min Rain = 0
KBY1 140241Z 00000KT 02/M04 A2996 RMK A01 T00161035  RH  069%=      5-min Rain = 0
KBY1 140242Z 00000KT 02/M04 A2996 RMK A01 T00171036  RH  068%=      5-min Rain = 0
KBY1 140243Z 05000KT 02/M04 A2996 RMK A01 T00161036  RH  068%=      5-min Rain = 0
KBY1 140244Z 03002KT 02/M04 A2995 RMK A01 T00151037  RH  068%=      5-min Rain = 0
KBY1 140245Z 35001KT 01/M04 A2995 RMK A01 T00131037  RH  069%=      5-min Rain = 0
KBY1 140246Z 31002KT 01/M03 A2996 RMK A01 T00141034  RH  070%=      5-min Rain = 0
KBY1 140247Z 31002KT 02/M03 A2996 RMK A01 T00191031  RH  069%=      5-min Rain = 0
KBY1 140248Z 31002KT 02/M03 A2996 RMK A01 T00241030  RH  067%=      5-min Rain = 0
KBY1 140249Z 30001KT 03/M03 A2996 RMK A01 T00291030  RH  065%=      5-min Rain = 0
KBY1 140250Z 00000KT 03/M03 A2996 RMK A01 T00281033  RH  064%=      5-min Rain = 0
KBY1 140251Z 00000KT 03/M03 A2996 RMK A01 T00261034  RH  065%=      5-min Rain = 0
KBY1 140252Z 21000KT 03/M03 A2996 RMK A01 T00251034  RH  065%=      5-min Rain = 0
KBY1 140253Z 21000KT 02/M03 A2996 RMK A01 T00231034  RH  066%=      5-min Rain = 0
KBY1 140254Z 23001KT 02/M03 A2996 RMK A01 T00221034  RH  066%=      5-min Rain = 0
KBY1 140255Z 24001KT 02/M03 A2996 RMK A01 T00211034  RH  067%=      5-min Rain = 0
KBY1 140256Z 33001KT 02/M03 A2997 RMK A01 T00221032  RH  068%=      5-min Rain = 0
KBY1 140257Z 33003KT 02/M03 A2997 RMK A01 T00241029  RH  068%=      5-min Rain = 0
KBY1 140258Z 32004KT 03/M03 A2997 RMK A01 T00281028  RH  067%=      5-min Rain = 0
KBY1 140259Z 33003KT 03/M03 A2997 RMK A01 T00301028  RH  066%=      5-min Rain = 0
KBY1 140300Z 34000KT 03/M03 A2996 RMK A01 T00311029  RH  065%=      5-min Rain = 0
KBY1 140301Z 00000KT 03/M03 A2996 RMK A01 T00321029  RH  064%=      5-min Rain = 0
KBY1 140302Z 01001KT 04/M03 A2997 RMK A01 T00351029  RH  063%=      5-min Rain = 0
KBY1 140303Z 01002KT 04/M03 A2997 RMK A01 T00361029  RH  063%=      5-min Rain = 0
KBY1 140304Z 34001KT 04/M03 A2998 RMK A01 T00371028  RH  062%=      5-min Rain = 0
KBY1 140305Z 33001KT 04/M03 A2998 RMK A01 T00391028  RH  062%=      5-min Rain = 0
KBY1 140306Z 34002KT 04/M03 A2998 RMK A01 T00401028  RH  061%=      5-min Rain = 0
KBY1 140307Z 00002KT 04/M03 A2997 RMK A01 T00411028  RH  061%=      5-min Rain = 0
KBY1 140308Z 03001KT 04/M03 A2997 RMK A01 T00421028  RH  060%=      5-min Rain = 0
KBY1 140309Z 02000KT 04/M03 A2997 RMK A01 T00411030  RH  060%=      5-min Rain = 0
KBY1 140310Z 24001KT 04/M03 A2997 RMK A01 T00361033  RH  061%=      5-min Rain = 0
KBY1 140311Z 25002KT 03/M03 A2997 RMK A01 T00321032  RH  063%=      5-min Rain = 0
KBY1 140312Z 30001KT 03/M03 A2997 RMK A01 T00331029  RH  064%=      5-min Rain = 0
KBY1 140313Z 31001KT 04/M03 A2998 RMK A01 T00351029  RH  063%=      5-min Rain = 0
KBY1 140314Z 30000KT 04/M03 A2998 RMK A01 T00371028  RH  062%=      5-min Rain = 0
KBY1 140315Z 35000KT 04/M03 A2998 RMK A01 T00371029  RH  062%=      5-min Rain = 0
KBY1 140316Z 03001KT 04/M03 A2998 RMK A01 T00371030  RH  062%=      5-min Rain = 0
KBY1 140317Z 33001KT 04/M03 A2997 RMK A01 T00371029  RH  062%=      5-min Rain = 0
KBY1 140318Z 34000KT 04/M03 A2997 RMK A01 T00371028  RH  062%=      5-min Rain = 0
KBY1 140319Z 00000KT 04/M03 A2997 RMK A01 T00371029  RH  062%=      5-min Rain = 0
KBY1 140320Z 00000KT 04/M03 A2997 RMK A01 T00371029  RH  062%=      5-min Rain = 0
KBY1 140321Z 26000KT 04/M03 A2998 RMK A01 T00371029  RH  062%=      5-min Rain = 0
KBY1 140322Z 29001KT 04/M03 A2998 RMK A01 T00361028  RH  063%=      5-min Rain = 0
KBY1 140323Z 30000KT 04/M03 A2998 RMK A01 T00361027  RH  063%=      5-min Rain = 0
KBY1 140324Z 00000KT 04/M03 A2998 RMK A01 T00361027  RH  063%=      5-min Rain = 0
KBY1 140325Z 29001KT 04/M03 A2998 RMK A01 T00371027  RH  063%=      5-min Rain = 0
KBY1 140326Z 35001KT 04/M03 A2998 RMK A01 T00361027  RH  063%=      5-min Rain = 0
KBY1 140327Z 00001KT 04/M03 A2998 RMK A01 T00371027  RH  063%=      5-min Rain = 0
KBY1 140328Z 35001KT 04/M03 A2998 RMK A01 T00371026  RH  063%=      5-min Rain = 0
KBY1 140329Z 31001KT 04/M03 A2998 RMK A01 T00381027  RH  063%=      5-min Rain = 0
KBY1 140330Z 36001KT 04/M03 A2998 RMK A01 T00381027  RH  062%=      5-min Rain = 0
KBY1 140331Z 35000KT 04/M03 A2998 RMK A01 T00391027  RH  062%=      5-min Rain = 0
KBY1 140332Z 29000KT 04/M03 A2998 RMK A01 T00401026  RH  062%=      5-min Rain = 0
KBY1 140333Z 00000KT 04/M03 A2998 RMK A01 T00401027  RH  062%=      5-min Rain = 0
KBY1 140334Z 00000KT 04/M03 A2998 RMK A01 T00401027  RH  062%=      5-min Rain = 0
KBY1 140335Z 04000KT 04/M03 A2998 RMK A01 T00391027  RH  062%=      5-min Rain = 0
KBY1 140336Z 36000KT 04/M03 A2998 RMK A01 T00391027  RH  062%=      5-min Rain = 0
KBY1 140337Z 34002KT 04/M03 A2998 RMK A01 T00391026  RH  063%=      5-min Rain = 0
KBY1 140338Z 34002KT 04/M03 A2998 RMK A01 T00391026  RH  063%=      5-min Rain = 0
KBY1 140339Z 34002KT 04/M03 A2998 RMK A01 T00401026  RH  062%=      5-min Rain = 0
KBY1 140340Z 34002KT 04/M03 A2998 RMK A01 T00411026  RH  062%=      5-min Rain = 0
KBY1 140341Z 36001KT 04/M03 A2998 RMK A01 T00421025  RH  062%=      5-min Rain = 0
KBY1 140342Z 01002KT 04/M03 A2998 RMK A01 T00421025  RH  062%=      5-min Rain = 0
KBY1 140343Z 01001KT 04/M03 A2998 RMK A01 T00401025  RH  062%=      5-min Rain = 0
KBY1 140344Z 06001KT 04/M03 A2998 RMK A01 T00391025  RH  063%=      5-min Rain = 0
KBY1 140345Z 08001KT 04/M03 A2998 RMK A01 T00381025  RH  063%=      5-min Rain = 0
KBY1 140346Z 05002KT 04/M03 A2998 RMK A01 T00381025  RH  064%=      5-min Rain = 0
KBY1 140347Z 06002KT 04/M02 A2998 RMK A01 T00381024  RH  064%=      5-min Rain = 0
KBY1 140348Z 04002KT 04/M02 A2997 RMK A01 T00381024  RH  064%=      5-min Rain = 0
KBY1 140349Z 07002KT 04/M02 A2997 RMK A01 T00381024  RH  064%=      5-min Rain = 0
KBY1 140350Z 08002KT 04/M02 A2997 RMK A01 T00381024  RH  064%=      5-min Rain = 0
KBY1 140351Z 08002KT 04/M03 A2997 RMK A01 T00371025  RH  064%=      5-min Rain = 0
KBY1 140352Z 08002KT 04/M03 A2998 RMK A01 T00361026  RH  064%=      5-min Rain = 0
KBY1 140353Z 07002KT 04/M03 A2998 RMK A01 T00351026  RH  064%=      5-min Rain = 0
KBY1 140354Z 08002KT 03/M03 A2998 RMK A01 T00341026  RH  065%=      5-min Rain = 0
KBY1 140355Z 07002KT 03/M03 A2998 RMK A01 T00341026  RH  065%=      5-min Rain = 0
KBY1 140356Z 07002KT 03/M03 A2998 RMK A01 T00331026  RH  065%=      5-min Rain = 0
KBY1 140357Z 10001KT 03/M03 A2998 RMK A01 T00321025  RH  066%=      5-min Rain = 0
KBY1 140358Z 13001KT 03/M03 A2998 RMK A01 T00311025  RH  067%=      5-min Rain = 0
KBY1 140359Z 15001KT 03/M03 A2998 RMK A01 T00311025  RH  067%=      5-min Rain = 0
KBY1 140400Z 18002KT 03/M03 A2998 RMK A01 T00301026  RH  067%=      5-min Rain = 0
KBY1 140401Z 20002KT 03/M03 A2998 RMK A01 T00301025  RH  067%=      5-min Rain = 0
KBY1 140402Z 21002KT 03/M03 A2998 RMK A01 T00291025  RH  067%=      5-min Rain = 0
KBY1 140403Z 23002KT 03/M03 A2998 RMK A01 T00291025  RH  068%=      5-min Rain = 0
KBY1 140404Z 23003KT 03/M02 A2997 RMK A01 T00291024  RH  068%=      5-min Rain = 0
KBY1 140405Z 22004KT 03/M03 A2997 RMK A01 T00291025  RH  067%=      5-min Rain = 0
KBY1 140406Z 20003KT 03/M03 A2997 RMK A01 T00301027  RH  067%=      5-min Rain = 0
KBY1 140407Z 23002KT 03/M03 A2997 RMK A01 T00301027  RH  066%=      5-min Rain = 0
KBY1 140408Z 24001KT 03/M03 A2997 RMK A01 T00311027  RH  066%=      5-min Rain = 0
KBY1 140409Z 01001KT 03/M03 A2997 RMK A01 T00321027  RH  065%=      5-min Rain = 0
KBY1 140410Z 04000KT 03/M03 A2998 RMK A01 T00331027  RH  065%=      5-min Rain = 0
KBY1 140411Z 26000KT 03/M03 A2998 RMK A01 T00331027  RH  065%=      5-min Rain = 0
KBY1 140412Z 30001KT 03/M03 A2998 RMK A01 T00341026  RH  064%=      5-min Rain = 0
KBY1 140413Z 35000KT 04/M03 A2998 RMK A01 T00351026  RH  064%=      5-min Rain = 0
KBY1 140414Z 03000KT 04/M03 A2998 RMK A01 T00351025  RH  065%=      5-min Rain = 0
KBY1 140415Z 05000KT 04/M02 A2998 RMK A01 T00361024  RH  065%=      5-min Rain = 0
KBY1 140416Z 05001KT 04/M02 A2998 RMK A01 T00361024  RH  065%=      5-min Rain = 0
KBY1 140417Z 07000KT 04/M02 A2998 RMK A01 T00361024  RH  065%=      5-min Rain = 0
KBY1 140418Z 04001KT 04/M02 A2998 RMK A01 T00361024  RH  065%=      5-min Rain = 0
KBY1 140419Z 04001KT 04/M02 A2998 RMK A01 T00361024  RH  065%=      5-min Rain = 0
KBY1 140420Z 03002KT 04/M03 A2997 RMK A01 T00361025  RH  064%=      5-min Rain = 0
KBY1 140421Z 05002KT 04/M03 A2997 RMK A01 T00371025  RH  064%=      5-min Rain = 0
KBY1 140422Z 04002KT 04/M02 A2997 RMK A01 T00391024  RH  064%=      5-min Rain = 0
KBY1 140423Z 03002KT 04/M02 A2997 RMK A01 T00421023  RH  063%=      5-min Rain = 0
KBY1 140424Z 05001KT 04/M02 A2997 RMK A01 T00431023  RH  062%=      5-min Rain = 0
KBY1 140425Z 06001KT 04/M02 A2997 RMK A01 T00431023  RH  062%=      5-min Rain = 0
KBY1 140426Z 08001KT 04/M02 A2997 RMK A01 T00441024  RH  061%=      5-min Rain = 0
KBY1 140427Z 09001KT 04/M02 A2997 RMK A01 T00441024  RH  061%=      5-min Rain = 0
KBY1 140428Z 10001KT 04/M03 A2997 RMK A01 T00441025  RH  061%=      5-min Rain = 0
KBY1 140429Z 12000KT 04/M03 A2997 RMK A01 T00421027  RH  061%=      5-min Rain = 0
KBY1 140430Z 18000KT 04/M03 A2998 RMK A01 T00371028  RH  062%=      5-min Rain = 0
KBY1 140431Z 19001KT 03/M03 A2998 RMK A01 T00341027  RH  064%=      5-min Rain = 0
KBY1 140432Z 21001KT 03/M03 A2998 RMK A01 T00321026  RH  066%=      5-min Rain = 0
KBY1 140433Z 00000KT 03/M03 A2998 RMK A01 T00321025  RH  066%=      5-min Rain = 0
KBY1 140434Z 23000KT 03/M03 A2998 RMK A01 T00341025  RH  065%=      5-min Rain = 0
KBY1 140435Z 01001KT 04/M02 A2998 RMK A01 T00361024  RH  065%=      5-min Rain = 0
KBY1 140436Z 01001KT 04/M02 A2998 RMK A01 T00401023  RH  063%=      5-min Rain = 0
KBY1 140437Z 34001KT 05/M02 A2998 RMK A01 T00461022  RH  061%=      5-min Rain = 0
KBY1 140438Z 36001KT 05/M02 A2998 RMK A01 T00501022  RH  059%=      5-min Rain = 0
KBY1 140439Z 00000KT 05/M02 A2998 RMK A01 T00531023  RH  058%=      5-min Rain = 0
KBY1 140440Z 24001KT 05/M02 A2998 RMK A01 T00541024  RH  057%=      5-min Rain = 0
KBY1 140441Z 20000KT 05/M03 A2998 RMK A01 T00511025  RH  058%=      5-min Rain = 0
KBY1 140442Z 20001KT 05/M03 A2998 RMK A01 T00481027  RH  058%=      5-min Rain = 0
KBY1 140443Z 21001KT 05/M03 A2998 RMK A01 T00451027  RH  059%=      5-min Rain = 0
KBY1 140444Z 20002KT 04/M03 A2998 RMK A01 T00421027  RH  061%=      5-min Rain = 0
KBY1 140445Z 21001KT 04/M03 A2998 RMK A01 T00411027  RH  061%=      5-min Rain = 0
KBY1 140446Z 21002KT 04/M03 A2998 RMK A01 T00401027  RH  062%=      5-min Rain = 0
KBY1 140447Z 20001KT 04/M03 A2998 RMK A01 T00401027  RH  062%=      5-min Rain = 0
KBY1 140448Z 19001KT 04/M03 A2998 RMK A01 T00411026  RH  061%=      5-min Rain = 0
KBY1 140449Z 20001KT 04/M03 A2997 RMK A01 T00421026  RH  061%=      5-min Rain = 0
KBY1 140450Z 20002KT 04/M03 A2997 RMK A01 T00421025  RH  062%=      5-min Rain = 0
KBY1 140451Z 21001KT 04/M02 A2997 RMK A01 T00431024  RH  062%=      5-min Rain = 0
KBY1 140452Z 21002KT 04/M03 A2997 RMK A01 T00421025  RH  062%=      5-min Rain = 0
KBY1 140453Z 21002KT 04/M02 A2998 RMK A01 T00441024  RH  061%=      5-min Rain = 0
KBY1 140454Z 22003KT 05/M02 A2998 RMK A01 T00451022  RH  062%=      5-min Rain = 0
KBY1 140455Z 21003KT 04/M02 A2998 RMK A01 T00431023  RH  062%=      5-min Rain = 0
KBY1 140456Z 21003KT 04/M02 A2998 RMK A01 T00431024  RH  062%=      5-min Rain = 0
KBY1 140457Z 21004KT 04/M02 A2997 RMK A01 T00431023  RH  062%=      5-min Rain = 0
KBY1 140458Z 21004KT 04/M02 A2997 RMK A01 T00421023  RH  062%=      5-min Rain = 0
KBY1 140459Z 20004KT 04/M02 A2997 RMK A01 T00411024  RH  063%=      5-min Rain = 0
KBY1 140500Z 20003KT 04/M02 A2997 RMK A01 T00401024  RH  063%=      5-min Rain = 0
KBY1 140501Z 20003KT 04/M03 A2997 RMK A01 T00421025  RH  062%=      5-min Rain = 0
KBY1 140502Z 20003KT 04/M02 A2997 RMK A01 T00431024  RH  062%=      5-min Rain = 0
KBY1 140503Z 18003KT 04/M02 A2997 RMK A01 T00431024  RH  062%=      5-min Rain = 0
KBY1 140504Z 17003KT 04/M03 A2997 RMK A01 T00431025  RH  061%=      5-min Rain = 0
KBY1 140505Z 16003KT 04/M03 A2997 RMK A01 T00441026  RH  060%=      5-min Rain = 0
KBY1 140506Z 15003KT 05/M03 A2997 RMK A01 T00451026  RH  060%=      5-min Rain = 0
KBY1 140507Z 13003KT 05/M03 A2997 RMK A01 T00451026  RH  060%=      5-min Rain = 0
KBY1 140508Z 13003KT 05/M03 A2997 RMK A01 T00451026  RH  060%=      5-min Rain = 0
KBY1 140509Z 12003KT 05/M03 A2997 RMK A01 T00451026  RH  060%=      5-min Rain = 0
KBY1 140510Z 11004KT 05/M03 A2996 RMK A01 T00461026  RH  060%=      5-min Rain = 0
KBY1 140511Z 10004KT 05/M03 A2996 RMK A01 T00461026  RH  059%=      5-min Rain = 0
KBY1 140512Z 10004KT 05/M03 A2996 RMK A01 T00471026  RH  059%=      5-min Rain = 0
KBY1 140513Z 09003KT 05/M03 A2996 RMK A01 T00461026  RH  059%=      5-min Rain = 0
KBY1 140514Z 09003KT 05/M03 A2996 RMK A01 T00471025  RH  059%=      5-min Rain = 0
KBY1 140515Z 09003KT 05/M03 A2996 RMK A01 T00481025  RH  059%=      5-min Rain = 0
KBY1 140516Z 10003KT 05/M02 A2996 RMK A01 T00501024  RH  059%=      5-min Rain = 0
KBY1 140517Z 11003KT 05/M02 A2996 RMK A01 T00501024  RH  059%=      5-min Rain = 0
KBY1 140518Z 11003KT 05/M02 A2996 RMK A01 T00501024  RH  059%=      5-min Rain = 0
KBY1 140519Z 12003KT 05/M03 A2996 RMK A01 T00501025  RH  058%=      5-min Rain = 0
KBY1 140520Z 12003KT 05/M03 A2996 RMK A01 T00501025  RH  058%=      5-min Rain = 0
KBY1 140521Z 13002KT 05/M02 A2996 RMK A01 T00501024  RH  059%=      5-min Rain = 0
KBY1 140522Z 14002KT 05/M02 A2996 RMK A01 T00501024  RH  059%=      5-min Rain = 0
KBY1 140523Z 13002KT 05/M02 A2996 RMK A01 T00501024  RH  059%=      5-min Rain = 0
KBY1 140524Z 14002KT 05/M02 A2997 RMK A01 T00491024  RH  059%=      5-min Rain = 0
KBY1 140525Z 14001KT 05/M03 A2997 RMK A01 T00491025  RH  059%=      5-min Rain = 0
KBY1 140526Z 14001KT 05/M03 A2997 RMK A01 T00491025  RH  059%=      5-min Rain = 0
KBY1 140527Z 14001KT 05/M03 A2997 RMK A01 T00501026  RH  058%=      5-min Rain = 0
KBY1 140528Z 15001KT 05/M03 A2997 RMK A01 T00511025  RH  058%=      5-min Rain = 0
KBY1 140529Z 15001KT 05/M03 A2997 RMK A01 T00511026  RH  057%=      5-min Rain = 0
KBY1 140530Z 16001KT 05/M03 A2997 RMK A01 T00511026  RH  057%=      5-min Rain = 0
KBY1 140531Z 17000KT 05/M03 A2997 RMK A01 T00511027  RH  057%=      5-min Rain = 0
KBY1 140532Z 13000KT 05/M03 A2997 RMK A01 T00511026  RH  057%=      5-min Rain = 0
KBY1 140533Z 17000KT 05/M03 A2997 RMK A01 T00511027  RH  057%=      5-min Rain = 0
KBY1 140534Z 17001KT 05/M03 A2997 RMK A01 T00501028  RH  057%=      5-min Rain = 0
KBY1 140535Z 17001KT 05/M03 A2997 RMK A01 T00501027  RH  057%=      5-min Rain = 0
KBY1 140536Z 13000KT 05/M03 A2997 RMK A01 T00501027  RH  057%=      5-min Rain = 0
KBY1 140537Z 17001KT 05/M03 A2997 RMK A01 T00511027  RH  057%=      5-min Rain = 0
KBY1 140538Z 16002KT 05/M03 A2997 RMK A01 T00511027  RH  057%=      5-min Rain = 0
KBY1 140539Z 18002KT 05/M03 A2996 RMK A01 T00511027  RH  057%=      5-min Rain = 0
KBY1 140540Z 19002KT 05/M03 A2996 RMK A01 T00521027  RH  057%=      5-min Rain = 0
KBY1 140541Z 19002KT 05/M03 A2997 RMK A01 T00521027  RH  057%=      5-min Rain = 0
KBY1 140542Z 20002KT 05/M03 A2997 RMK A01 T00501028  RH  057%=      5-min Rain = 0
KBY1 140543Z 19002KT 05/M03 A2997 RMK A01 T00491027  RH  058%=      5-min Rain = 0
KBY1 140544Z 16002KT 05/M03 A2997 RMK A01 T00491026  RH  058%=      5-min Rain = 0
KBY1 140545Z 17002KT 05/M03 A2997 RMK A01 T00491027  RH  058%=      5-min Rain = 0
KBY1 140546Z 05001KT 05/M03 A2997 RMK A01 T00501026  RH  058%=      5-min Rain = 0
KBY1 140547Z 34002KT 05/M03 A2997 RMK A01 T00501026  RH  058%=      5-min Rain = 0
KBY1 140548Z 03003KT 05/M03 A2997 RMK A01 T00521026  RH  057%=      5-min Rain = 0
KBY1 140549Z 05002KT 05/M03 A2997 RMK A01 T00541026  RH  057%=      5-min Rain = 0
KBY1 140550Z 06003KT 06/M03 A2997 RMK A01 T00561025  RH  056%=      5-min Rain = 0
KBY1 140551Z 06003KT 06/M03 A2997 RMK A01 T00571025  RH  055%=      5-min Rain = 0
KBY1 140552Z 05003KT 06/M03 A2997 RMK A01 T00581025  RH  055%=      5-min Rain = 0
KBY1 140553Z 10002KT 06/M02 A2997 RMK A01 T00591023  RH  056%=      5-min Rain = 0
KBY1 140554Z 10003KT 06/M02 A2997 RMK A01 T00581023  RH  056%=      5-min Rain = 0
KBY1 140555Z 09007KT 06/M02 A2997 RMK A01 T00571022  RH  057%=      5-min Rain = 0
KBY1 140556Z 11005KT 06/M02 A2996 RMK A01 T00591022  RH  056%=      5-min Rain = 0
KBY1 140557Z 11004KT 06/M02 A2996 RMK A01 T00591023  RH  056%=      5-min Rain = 0
KBY1 140558Z 11004KT 06/M02 A2996 RMK A01 T00591024  RH  055%=      5-min Rain = 0
KBY1 140559Z 12004KT 06/M02 A2996 RMK A01 T00581023  RH  056%=      5-min Rain = 0

Page generated in 0.0732 seconds.